<?xml version="1.0" encoding="UTF-8" standalone="no" ?>
<gpx xmlns="http://www.topografix.com/GPX/1/1" xmlns:xsi="http://www.w3.org/2001/XMLSchema-instance" xsi:schemaLocation="http://www.topografix.com/GPX/1/1 http://www.topografix.com/GPX/1/1/gpx.xsd" version="1.1" creator="VisuGPX - https://www.visugpx.com">
  <metadata>
    <name>Soyan-Pont de Barret</name>
    <desc><![CDATA[Chemin partant de soyan et permetant de ralier pont de barret par la montagne d\'esson.]]></desc>
  </metadata>
  <trk>
    <name><![CDATA[Tracé]]></name>
    <trkseg>
      <trkpt lat="44.60256" lon="5.02271">
        <ele>340.44</ele>
        <time>2011-12-28T13:19:00Z</time>
      </trkpt>
      <trkpt lat="44.60253" lon="5.02256">
        <ele>339.96</ele>
        <time>2011-12-28T13:19:08Z</time>
      </trkpt>
      <trkpt lat="44.60251" lon="5.02246">
        <ele>339</ele>
        <time>2011-12-28T13:19:15Z</time>
      </trkpt>
      <trkpt lat="44.60247" lon="5.02233">
        <ele>338.04</ele>
        <time>2011-12-28T13:19:24Z</time>
      </trkpt>
      <trkpt lat="44.60246" lon="5.02224">
        <ele>336.6</ele>
        <time>2011-12-28T13:19:30Z</time>
      </trkpt>
      <trkpt lat="44.60238" lon="5.02219">
        <ele>333.71</ele>
        <time>2011-12-28T13:19:38Z</time>
      </trkpt>
      <trkpt lat="44.60235" lon="5.02222">
        <ele>333.23</ele>
        <time>2011-12-28T13:19:41Z</time>
      </trkpt>
      <trkpt lat="44.60233" lon="5.02231">
        <ele>332.27</ele>
        <time>2011-12-28T13:19:46Z</time>
      </trkpt>
      <trkpt lat="44.60235" lon="5.02247">
        <ele>331.79</ele>
        <time>2011-12-28T13:19:57Z</time>
      </trkpt>
      <trkpt lat="44.60234" lon="5.0225">
        <ele>331.79</ele>
        <time>2011-12-28T13:20:00Z</time>
      </trkpt>
      <trkpt lat="44.60234" lon="5.02259">
        <ele>330.35</ele>
        <time>2011-12-28T13:20:05Z</time>
      </trkpt>
      <trkpt lat="44.60232" lon="5.02268">
        <ele>329.39</ele>
        <time>2011-12-28T13:20:11Z</time>
      </trkpt>
      <trkpt lat="44.6023" lon="5.02276">
        <ele>327.95</ele>
        <time>2011-12-28T13:20:19Z</time>
      </trkpt>
      <trkpt lat="44.60229" lon="5.02279">
        <ele>327.47</ele>
        <time>2011-12-28T13:20:23Z</time>
      </trkpt>
      <trkpt lat="44.60223" lon="5.0228">
        <ele>326.5</ele>
        <time>2011-12-28T13:20:27Z</time>
      </trkpt>
      <trkpt lat="44.6022" lon="5.02279">
        <ele>326.5</ele>
        <time>2011-12-28T13:20:29Z</time>
      </trkpt>
      <trkpt lat="44.60214" lon="5.02267">
        <ele>325.54</ele>
        <time>2011-12-28T13:20:38Z</time>
      </trkpt>
      <trkpt lat="44.60208" lon="5.02253">
        <ele>325.06</ele>
        <time>2011-12-28T13:20:47Z</time>
      </trkpt>
      <trkpt lat="44.602" lon="5.02245">
        <ele>325.06</ele>
        <time>2011-12-28T13:20:55Z</time>
      </trkpt>
      <trkpt lat="44.60194" lon="5.02237">
        <ele>325.06</ele>
        <time>2011-12-28T13:21:02Z</time>
      </trkpt>
      <trkpt lat="44.60189" lon="5.02232">
        <ele>324.58</ele>
        <time>2011-12-28T13:21:06Z</time>
      </trkpt>
      <trkpt lat="44.6018" lon="5.02225">
        <ele>323.14</ele>
        <time>2011-12-28T13:21:16Z</time>
      </trkpt>
      <trkpt lat="44.6017" lon="5.02217">
        <ele>322.66</ele>
        <time>2011-12-28T13:21:26Z</time>
      </trkpt>
      <trkpt lat="44.60163" lon="5.0221">
        <ele>321.22</ele>
        <time>2011-12-28T13:21:33Z</time>
      </trkpt>
      <trkpt lat="44.60159" lon="5.02202">
        <ele>320.74</ele>
        <time>2011-12-28T13:21:39Z</time>
      </trkpt>
      <trkpt lat="44.60155" lon="5.02194">
        <ele>320.74</ele>
        <time>2011-12-28T13:21:44Z</time>
      </trkpt>
      <trkpt lat="44.60156" lon="5.02181">
        <ele>322.18</ele>
        <time>2011-12-28T13:21:51Z</time>
      </trkpt>
      <trkpt lat="44.60157" lon="5.02175">
        <ele>322.66</ele>
        <time>2011-12-28T13:21:58Z</time>
      </trkpt>
      <trkpt lat="44.60162" lon="5.02161">
        <ele>322.66</ele>
        <time>2011-12-28T13:22:09Z</time>
      </trkpt>
      <trkpt lat="44.60162" lon="5.0216">
        <ele>322.66</ele>
        <time>2011-12-28T13:22:10Z</time>
      </trkpt>
      <trkpt lat="44.60168" lon="5.02147">
        <ele>321.22</ele>
        <time>2011-12-28T13:22:19Z</time>
      </trkpt>
      <trkpt lat="44.60171" lon="5.02138">
        <ele>320.26</ele>
        <time>2011-12-28T13:22:27Z</time>
      </trkpt>
      <trkpt lat="44.60172" lon="5.0213">
        <ele>317.37</ele>
        <time>2011-12-28T13:22:33Z</time>
      </trkpt>
      <trkpt lat="44.60172" lon="5.02126">
        <ele>317.85</ele>
        <time>2011-12-28T13:22:41Z</time>
      </trkpt>
      <trkpt lat="44.60172" lon="5.02125">
        <ele>316.89</ele>
        <time>2011-12-28T13:22:50Z</time>
      </trkpt>
      <trkpt lat="44.6017" lon="5.02116">
        <ele>315.45</ele>
        <time>2011-12-28T13:22:58Z</time>
      </trkpt>
      <trkpt lat="44.60167" lon="5.02108">
        <ele>314.01</ele>
        <time>2011-12-28T13:23:04Z</time>
      </trkpt>
      <trkpt lat="44.60165" lon="5.02096">
        <ele>312.57</ele>
        <time>2011-12-28T13:23:12Z</time>
      </trkpt>
      <trkpt lat="44.60166" lon="5.02087">
        <ele>310.16</ele>
        <time>2011-12-28T13:23:20Z</time>
      </trkpt>
      <trkpt lat="44.60166" lon="5.02086">
        <ele>310.16</ele>
        <time>2011-12-28T13:23:30Z</time>
      </trkpt>
      <trkpt lat="44.60171" lon="5.0207">
        <ele>307.28</ele>
        <time>2011-12-28T13:23:41Z</time>
      </trkpt>
      <trkpt lat="44.60173" lon="5.02061">
        <ele>307.28</ele>
        <time>2011-12-28T13:23:45Z</time>
      </trkpt>
      <trkpt lat="44.60173" lon="5.02057">
        <ele>306.32</ele>
        <time>2011-12-28T13:23:47Z</time>
      </trkpt>
      <trkpt lat="44.60182" lon="5.02036">
        <ele>306.8</ele>
        <time>2011-12-28T13:23:58Z</time>
      </trkpt>
      <trkpt lat="44.60187" lon="5.02028">
        <ele>307.76</ele>
        <time>2011-12-28T13:24:05Z</time>
      </trkpt>
      <trkpt lat="44.6019" lon="5.02017">
        <ele>306.8</ele>
        <time>2011-12-28T13:24:12Z</time>
      </trkpt>
      <trkpt lat="44.60191" lon="5.02006">
        <ele>305.84</ele>
        <time>2011-12-28T13:24:21Z</time>
      </trkpt>
      <trkpt lat="44.60192" lon="5.01995">
        <ele>304.39</ele>
        <time>2011-12-28T13:24:29Z</time>
      </trkpt>
      <trkpt lat="44.60191" lon="5.01984">
        <ele>302.95</ele>
        <time>2011-12-28T13:24:37Z</time>
      </trkpt>
      <trkpt lat="44.60189" lon="5.01971">
        <ele>302.47</ele>
        <time>2011-12-28T13:24:45Z</time>
      </trkpt>
      <trkpt lat="44.60187" lon="5.01958">
        <ele>301.51</ele>
        <time>2011-12-28T13:24:53Z</time>
      </trkpt>
      <trkpt lat="44.60186" lon="5.01948">
        <ele>299.59</ele>
        <time>2011-12-28T13:25:01Z</time>
      </trkpt>
      <trkpt lat="44.60183" lon="5.01933">
        <ele>298.15</ele>
        <time>2011-12-28T13:25:10Z</time>
      </trkpt>
      <trkpt lat="44.60183" lon="5.01918">
        <ele>295.74</ele>
        <time>2011-12-28T13:25:19Z</time>
      </trkpt>
      <trkpt lat="44.60181" lon="5.01902">
        <ele>296.22</ele>
        <time>2011-12-28T13:25:27Z</time>
      </trkpt>
      <trkpt lat="44.60182" lon="5.01887">
        <ele>296.22</ele>
        <time>2011-12-28T13:25:35Z</time>
      </trkpt>
      <trkpt lat="44.60178" lon="5.01872">
        <ele>295.74</ele>
        <time>2011-12-28T13:25:44Z</time>
      </trkpt>
      <trkpt lat="44.60174" lon="5.01865">
        <ele>295.74</ele>
        <time>2011-12-28T13:25:50Z</time>
      </trkpt>
      <trkpt lat="44.60169" lon="5.01848">
        <ele>293.34</ele>
        <time>2011-12-28T13:26:01Z</time>
      </trkpt>
      <trkpt lat="44.60166" lon="5.01837">
        <ele>292.38</ele>
        <time>2011-12-28T13:26:08Z</time>
      </trkpt>
      <trkpt lat="44.60162" lon="5.0182">
        <ele>290.94</ele>
        <time>2011-12-28T13:26:18Z</time>
      </trkpt>
      <trkpt lat="44.60158" lon="5.01803">
        <ele>289.49</ele>
        <time>2011-12-28T13:26:27Z</time>
      </trkpt>
      <trkpt lat="44.60155" lon="5.01788">
        <ele>289.01</ele>
        <time>2011-12-28T13:26:35Z</time>
      </trkpt>
      <trkpt lat="44.60153" lon="5.01773">
        <ele>288.53</ele>
        <time>2011-12-28T13:26:42Z</time>
      </trkpt>
      <trkpt lat="44.60151" lon="5.01759">
        <ele>287.57</ele>
        <time>2011-12-28T13:26:50Z</time>
      </trkpt>
      <trkpt lat="44.60148" lon="5.01743">
        <ele>289.49</ele>
        <time>2011-12-28T13:26:58Z</time>
      </trkpt>
      <trkpt lat="44.60149" lon="5.01727">
        <ele>290.94</ele>
        <time>2011-12-28T13:27:06Z</time>
      </trkpt>
      <trkpt lat="44.60155" lon="5.0171">
        <ele>291.9</ele>
        <time>2011-12-28T13:27:16Z</time>
      </trkpt>
      <trkpt lat="44.60161" lon="5.01696">
        <ele>293.34</ele>
        <time>2011-12-28T13:27:24Z</time>
      </trkpt>
      <trkpt lat="44.60167" lon="5.01683">
        <ele>293.34</ele>
        <time>2011-12-28T13:27:33Z</time>
      </trkpt>
      <trkpt lat="44.60171" lon="5.01667">
        <ele>290.46</ele>
        <time>2011-12-28T13:27:42Z</time>
      </trkpt>
      <trkpt lat="44.60173" lon="5.01653">
        <ele>286.13</ele>
        <time>2011-12-28T13:27:50Z</time>
      </trkpt>
      <trkpt lat="44.60175" lon="5.01641">
        <ele>283.25</ele>
        <time>2011-12-28T13:27:58Z</time>
      </trkpt>
      <trkpt lat="44.60176" lon="5.01625">
        <ele>280.36</ele>
        <time>2011-12-28T13:28:08Z</time>
      </trkpt>
      <trkpt lat="44.60176" lon="5.01611">
        <ele>280.36</ele>
        <time>2011-12-28T13:28:16Z</time>
      </trkpt>
      <trkpt lat="44.60175" lon="5.01596">
        <ele>278.92</ele>
        <time>2011-12-28T13:28:25Z</time>
      </trkpt>
      <trkpt lat="44.60175" lon="5.01578">
        <ele>275.56</ele>
        <time>2011-12-28T13:28:35Z</time>
      </trkpt>
      <trkpt lat="44.60175" lon="5.01563">
        <ele>273.63</ele>
        <time>2011-12-28T13:28:43Z</time>
      </trkpt>
      <trkpt lat="44.60176" lon="5.01546">
        <ele>272.67</ele>
        <time>2011-12-28T13:28:52Z</time>
      </trkpt>
      <trkpt lat="44.60179" lon="5.01532">
        <ele>272.19</ele>
        <time>2011-12-28T13:28:59Z</time>
      </trkpt>
      <trkpt lat="44.60184" lon="5.01522">
        <ele>272.19</ele>
        <time>2011-12-28T13:29:06Z</time>
      </trkpt>
      <trkpt lat="44.60184" lon="5.01505">
        <ele>271.71</ele>
        <time>2011-12-28T13:29:14Z</time>
      </trkpt>
      <trkpt lat="44.60185" lon="5.01495">
        <ele>270.75</ele>
        <time>2011-12-28T13:29:19Z</time>
      </trkpt>
      <trkpt lat="44.60189" lon="5.01478">
        <ele>269.79</ele>
        <time>2011-12-28T13:29:29Z</time>
      </trkpt>
      <trkpt lat="44.60193" lon="5.01462">
        <ele>270.75</ele>
        <time>2011-12-28T13:29:37Z</time>
      </trkpt>
      <trkpt lat="44.60197" lon="5.01449">
        <ele>270.27</ele>
        <time>2011-12-28T13:29:44Z</time>
      </trkpt>
      <trkpt lat="44.60201" lon="5.01433">
        <ele>270.27</ele>
        <time>2011-12-28T13:29:52Z</time>
      </trkpt>
      <trkpt lat="44.60204" lon="5.01424">
        <ele>269.31</ele>
        <time>2011-12-28T13:29:57Z</time>
      </trkpt>
      <trkpt lat="44.60206" lon="5.01415">
        <ele>268.35</ele>
        <time>2011-12-28T13:30:02Z</time>
      </trkpt>
      <trkpt lat="44.6021" lon="5.01399">
        <ele>266.9</ele>
        <time>2011-12-28T13:30:11Z</time>
      </trkpt>
      <trkpt lat="44.60213" lon="5.01385">
        <ele>264.98</ele>
        <time>2011-12-28T13:30:19Z</time>
      </trkpt>
      <trkpt lat="44.60218" lon="5.01371">
        <ele>263.54</ele>
        <time>2011-12-28T13:30:27Z</time>
      </trkpt>
      <trkpt lat="44.60223" lon="5.01356">
        <ele>262.58</ele>
        <time>2011-12-28T13:30:36Z</time>
      </trkpt>
      <trkpt lat="44.60228" lon="5.01344">
        <ele>263.06</ele>
        <time>2011-12-28T13:30:43Z</time>
      </trkpt>
      <trkpt lat="44.60232" lon="5.01333">
        <ele>264.02</ele>
        <time>2011-12-28T13:30:51Z</time>
      </trkpt>
      <trkpt lat="44.60228" lon="5.01317">
        <ele>260.65</ele>
        <time>2011-12-28T10:46:29Z</time>
      </trkpt>
      <trkpt lat="44.60229" lon="5.01319">
        <ele>260.65</ele>
        <time>2011-12-28T10:46:30Z</time>
      </trkpt>
      <trkpt lat="44.6023" lon="5.01322">
        <ele>260.17</ele>
        <time>2011-12-28T10:46:32Z</time>
      </trkpt>
      <trkpt lat="44.60229" lon="5.01331">
        <ele>260.65</ele>
        <time>2011-12-28T10:46:36Z</time>
      </trkpt>
      <trkpt lat="44.60229" lon="5.01332">
        <ele>260.65</ele>
        <time>2011-12-28T10:46:37Z</time>
      </trkpt>
      <trkpt lat="44.60227" lon="5.01336">
        <ele>261.62</ele>
        <time>2011-12-28T10:46:39Z</time>
      </trkpt>
      <trkpt lat="44.60221" lon="5.01349">
        <ele>263.06</ele>
        <time>2011-12-28T10:46:46Z</time>
      </trkpt>
      <trkpt lat="44.60216" lon="5.01363">
        <ele>265.94</ele>
        <time>2011-12-28T10:46:54Z</time>
      </trkpt>
      <trkpt lat="44.6021" lon="5.01373">
        <ele>267.38</ele>
        <time>2011-12-28T10:47:01Z</time>
      </trkpt>
      <trkpt lat="44.6021" lon="5.01373">
        <ele>267.86</ele>
        <time>2011-12-28T10:47:09Z</time>
      </trkpt>
      <trkpt lat="44.6021" lon="5.01375">
        <ele>267.86</ele>
        <time>2011-12-28T10:47:21Z</time>
      </trkpt>
      <trkpt lat="44.6021" lon="5.01377">
        <ele>267.86</ele>
        <time>2011-12-28T10:47:22Z</time>
      </trkpt>
      <trkpt lat="44.60208" lon="5.01389">
        <ele>268.35</ele>
        <time>2011-12-28T10:47:29Z</time>
      </trkpt>
      <trkpt lat="44.60205" lon="5.01397">
        <ele>268.83</ele>
        <time>2011-12-28T10:47:34Z</time>
      </trkpt>
      <trkpt lat="44.60205" lon="5.01399">
        <ele>269.31</ele>
        <time>2011-12-28T10:47:35Z</time>
      </trkpt>
      <trkpt lat="44.60204" lon="5.01401">
        <ele>269.31</ele>
        <time>2011-12-28T10:47:36Z</time>
      </trkpt>
      <trkpt lat="44.60201" lon="5.01404">
        <ele>269.31</ele>
        <time>2011-12-28T10:47:39Z</time>
      </trkpt>
      <trkpt lat="44.602" lon="5.01406">
        <ele>269.79</ele>
        <time>2011-12-28T10:47:40Z</time>
      </trkpt>
      <trkpt lat="44.602" lon="5.01409">
        <ele>269.79</ele>
        <time>2011-12-28T10:47:41Z</time>
      </trkpt>
      <trkpt lat="44.602" lon="5.01412">
        <ele>269.79</ele>
        <time>2011-12-28T10:47:43Z</time>
      </trkpt>
      <trkpt lat="44.60198" lon="5.01425">
        <ele>268.83</ele>
        <time>2011-12-28T10:47:50Z</time>
      </trkpt>
      <trkpt lat="44.60197" lon="5.0143">
        <ele>268.35</ele>
        <time>2011-12-28T10:47:53Z</time>
      </trkpt>
      <trkpt lat="44.60196" lon="5.01432">
        <ele>268.35</ele>
        <time>2011-12-28T10:47:54Z</time>
      </trkpt>
      <trkpt lat="44.60193" lon="5.01447">
        <ele>267.38</ele>
        <time>2011-12-28T10:48:02Z</time>
      </trkpt>
      <trkpt lat="44.60191" lon="5.01457">
        <ele>267.38</ele>
        <time>2011-12-28T10:48:05Z</time>
      </trkpt>
      <trkpt lat="44.6019" lon="5.01461">
        <ele>267.86</ele>
        <time>2011-12-28T10:48:06Z</time>
      </trkpt>
      <trkpt lat="44.60188" lon="5.01467">
        <ele>267.86</ele>
        <time>2011-12-28T10:48:08Z</time>
      </trkpt>
      <trkpt lat="44.60186" lon="5.01471">
        <ele>268.35</ele>
        <time>2011-12-28T10:48:09Z</time>
      </trkpt>
      <trkpt lat="44.60185" lon="5.01475">
        <ele>268.35</ele>
        <time>2011-12-28T10:48:10Z</time>
      </trkpt>
      <trkpt lat="44.6018" lon="5.01497">
        <ele>268.35</ele>
        <time>2011-12-28T10:48:15Z</time>
      </trkpt>
      <trkpt lat="44.60179" lon="5.01501">
        <ele>268.83</ele>
        <time>2011-12-28T10:48:16Z</time>
      </trkpt>
      <trkpt lat="44.60178" lon="5.01505">
        <ele>268.83</ele>
        <time>2011-12-28T10:48:17Z</time>
      </trkpt>
      <trkpt lat="44.60177" lon="5.01509">
        <ele>268.83</ele>
        <time>2011-12-28T10:48:18Z</time>
      </trkpt>
      <trkpt lat="44.60176" lon="5.01513">
        <ele>268.83</ele>
        <time>2011-12-28T10:48:19Z</time>
      </trkpt>
      <trkpt lat="44.60176" lon="5.01517">
        <ele>268.83</ele>
        <time>2011-12-28T10:48:20Z</time>
      </trkpt>
      <trkpt lat="44.60173" lon="5.01538">
        <ele>269.79</ele>
        <time>2011-12-28T10:48:25Z</time>
      </trkpt>
      <trkpt lat="44.6017" lon="5.01561">
        <ele>271.23</ele>
        <time>2011-12-28T10:48:30Z</time>
      </trkpt>
      <trkpt lat="44.60171" lon="5.01566">
        <ele>271.23</ele>
        <time>2011-12-28T10:48:31Z</time>
      </trkpt>
      <trkpt lat="44.60172" lon="5.01572">
        <ele>271.71</ele>
        <time>2011-12-28T10:48:32Z</time>
      </trkpt>
      <trkpt lat="44.60172" lon="5.01594">
        <ele>272.67</ele>
        <time>2011-12-28T10:48:37Z</time>
      </trkpt>
      <trkpt lat="44.60171" lon="5.01619">
        <ele>272.67</ele>
        <time>2011-12-28T10:48:43Z</time>
      </trkpt>
      <trkpt lat="44.60171" lon="5.0164">
        <ele>273.15</ele>
        <time>2011-12-28T10:48:48Z</time>
      </trkpt>
      <trkpt lat="44.60168" lon="5.01659">
        <ele>273.15</ele>
        <time>2011-12-28T10:48:53Z</time>
      </trkpt>
      <trkpt lat="44.60163" lon="5.01672">
        <ele>273.63</ele>
        <time>2011-12-28T10:48:59Z</time>
      </trkpt>
      <trkpt lat="44.60159" lon="5.01679">
        <ele>273.15</ele>
        <time>2011-12-28T10:49:04Z</time>
      </trkpt>
      <trkpt lat="44.60158" lon="5.0168">
        <ele>273.15</ele>
        <time>2011-12-28T10:49:05Z</time>
      </trkpt>
      <trkpt lat="44.60156" lon="5.01681">
        <ele>273.15</ele>
        <time>2011-12-28T10:49:06Z</time>
      </trkpt>
      <trkpt lat="44.60155" lon="5.01682">
        <ele>273.15</ele>
        <time>2011-12-28T10:49:07Z</time>
      </trkpt>
      <trkpt lat="44.60154" lon="5.01683">
        <ele>273.15</ele>
        <time>2011-12-28T10:49:08Z</time>
      </trkpt>
      <trkpt lat="44.60153" lon="5.01684">
        <ele>273.15</ele>
        <time>2011-12-28T10:49:09Z</time>
      </trkpt>
      <trkpt lat="44.60152" lon="5.01686">
        <ele>273.15</ele>
        <time>2011-12-28T10:49:10Z</time>
      </trkpt>
      <trkpt lat="44.60152" lon="5.01687">
        <ele>273.15</ele>
        <time>2011-12-28T10:49:11Z</time>
      </trkpt>
      <trkpt lat="44.60149" lon="5.01697">
        <ele>273.15</ele>
        <time>2011-12-28T10:49:17Z</time>
      </trkpt>
      <trkpt lat="44.60148" lon="5.01706">
        <ele>273.15</ele>
        <time>2011-12-28T10:49:24Z</time>
      </trkpt>
      <trkpt lat="44.60149" lon="5.01719">
        <ele>272.67</ele>
        <time>2011-12-28T10:49:33Z</time>
      </trkpt>
      <trkpt lat="44.60151" lon="5.01735">
        <ele>273.15</ele>
        <time>2011-12-28T10:49:40Z</time>
      </trkpt>
      <trkpt lat="44.60153" lon="5.01765">
        <ele>273.63</ele>
        <time>2011-12-28T10:49:46Z</time>
      </trkpt>
      <trkpt lat="44.60157" lon="5.01791">
        <ele>274.59</ele>
        <time>2011-12-28T10:49:51Z</time>
      </trkpt>
      <trkpt lat="44.6016" lon="5.0182">
        <ele>277.48</ele>
        <time>2011-12-28T10:49:57Z</time>
      </trkpt>
      <trkpt lat="44.6017" lon="5.0185">
        <ele>280.36</ele>
        <time>2011-12-28T10:50:03Z</time>
      </trkpt>
      <trkpt lat="44.60175" lon="5.01867">
        <ele>280.84</ele>
        <time>2011-12-28T10:50:08Z</time>
      </trkpt>
      <trkpt lat="44.60177" lon="5.01872">
        <ele>281.32</ele>
        <time>2011-12-28T10:50:14Z</time>
      </trkpt>
      <trkpt lat="44.60177" lon="5.01872">
        <ele>281.32</ele>
        <time>2011-12-28T10:50:26Z</time>
      </trkpt>
      <trkpt lat="44.60177" lon="5.01872">
        <ele>281.32</ele>
        <time>2011-12-28T10:50:42Z</time>
      </trkpt>
      <trkpt lat="44.60179" lon="5.01878">
        <ele>281.8</ele>
        <time>2011-12-28T10:50:49Z</time>
      </trkpt>
      <trkpt lat="44.60181" lon="5.01886">
        <ele>284.21</ele>
        <time>2011-12-28T10:50:55Z</time>
      </trkpt>
      <trkpt lat="44.60181" lon="5.01888">
        <ele>284.21</ele>
        <time>2011-12-28T10:50:56Z</time>
      </trkpt>
      <trkpt lat="44.60181" lon="5.01889">
        <ele>285.17</ele>
        <time>2011-12-28T10:50:57Z</time>
      </trkpt>
      <trkpt lat="44.60183" lon="5.01906">
        <ele>288.53</ele>
        <time>2011-12-28T10:51:05Z</time>
      </trkpt>
      <trkpt lat="44.60185" lon="5.01919">
        <ele>292.38</ele>
        <time>2011-12-28T10:51:12Z</time>
      </trkpt>
      <trkpt lat="44.60188" lon="5.01936">
        <ele>299.11</ele>
        <time>2011-12-28T10:51:23Z</time>
      </trkpt>
      <trkpt lat="44.60191" lon="5.01948">
        <ele>301.51</ele>
        <time>2011-12-28T10:51:31Z</time>
      </trkpt>
      <trkpt lat="44.60191" lon="5.01954">
        <ele>303.43</ele>
        <time>2011-12-28T10:51:35Z</time>
      </trkpt>
      <trkpt lat="44.60193" lon="5.01962">
        <ele>303.91</ele>
        <time>2011-12-28T10:51:40Z</time>
      </trkpt>
      <trkpt lat="44.60195" lon="5.01972">
        <ele>303.91</ele>
        <time>2011-12-28T10:51:46Z</time>
      </trkpt>
      <trkpt lat="44.60195" lon="5.01974">
        <ele>303.91</ele>
        <time>2011-12-28T10:51:47Z</time>
      </trkpt>
      <trkpt lat="44.60195" lon="5.01985">
        <ele>305.36</ele>
        <time>2011-12-28T10:51:53Z</time>
      </trkpt>
      <trkpt lat="44.60194" lon="5.01988">
        <ele>305.84</ele>
        <time>2011-12-28T10:51:55Z</time>
      </trkpt>
      <trkpt lat="44.60193" lon="5.01989">
        <ele>306.32</ele>
        <time>2011-12-28T10:51:56Z</time>
      </trkpt>
      <trkpt lat="44.60193" lon="5.01999">
        <ele>308.24</ele>
        <time>2011-12-28T10:52:02Z</time>
      </trkpt>
      <trkpt lat="44.60191" lon="5.02006">
        <ele>309.68</ele>
        <time>2011-12-28T10:52:06Z</time>
      </trkpt>
      <trkpt lat="44.6019" lon="5.02015">
        <ele>310.64</ele>
        <time>2011-12-28T10:52:12Z</time>
      </trkpt>
      <trkpt lat="44.60188" lon="5.02028">
        <ele>311.12</ele>
        <time>2011-12-28T10:52:20Z</time>
      </trkpt>
      <trkpt lat="44.60185" lon="5.02037">
        <ele>311.12</ele>
        <time>2011-12-28T10:52:25Z</time>
      </trkpt>
      <trkpt lat="44.60185" lon="5.0204">
        <ele>311.12</ele>
        <time>2011-12-28T10:52:27Z</time>
      </trkpt>
      <trkpt lat="44.60183" lon="5.02045">
        <ele>311.12</ele>
        <time>2011-12-28T10:52:30Z</time>
      </trkpt>
      <trkpt lat="44.60182" lon="5.02047">
        <ele>311.12</ele>
        <time>2011-12-28T10:52:31Z</time>
      </trkpt>
      <trkpt lat="44.60181" lon="5.02049">
        <ele>311.12</ele>
        <time>2011-12-28T10:52:32Z</time>
      </trkpt>
      <trkpt lat="44.6018" lon="5.0205">
        <ele>311.12</ele>
        <time>2011-12-28T10:52:33Z</time>
      </trkpt>
      <trkpt lat="44.60179" lon="5.02055">
        <ele>310.64</ele>
        <time>2011-12-28T10:52:36Z</time>
      </trkpt>
      <trkpt lat="44.60178" lon="5.02056">
        <ele>310.64</ele>
        <time>2011-12-28T10:52:37Z</time>
      </trkpt>
      <trkpt lat="44.60175" lon="5.02069">
        <ele>310.64</ele>
        <time>2011-12-28T10:52:44Z</time>
      </trkpt>
      <trkpt lat="44.60172" lon="5.0208">
        <ele>310.64</ele>
        <time>2011-12-28T10:52:50Z</time>
      </trkpt>
      <trkpt lat="44.60171" lon="5.02089">
        <ele>309.2</ele>
        <time>2011-12-28T10:52:56Z</time>
      </trkpt>
      <trkpt lat="44.60171" lon="5.02103">
        <ele>307.76</ele>
        <time>2011-12-28T10:53:04Z</time>
      </trkpt>
      <trkpt lat="44.60172" lon="5.02108">
        <ele>307.76</ele>
        <time>2011-12-28T10:53:13Z</time>
      </trkpt>
      <trkpt lat="44.60172" lon="5.02108">
        <ele>307.76</ele>
        <time>2011-12-28T10:53:27Z</time>
      </trkpt>
      <trkpt lat="44.60173" lon="5.0211">
        <ele>308.24</ele>
        <time>2011-12-28T10:53:33Z</time>
      </trkpt>
      <trkpt lat="44.60174" lon="5.02118">
        <ele>309.2</ele>
        <time>2011-12-28T10:53:40Z</time>
      </trkpt>
      <trkpt lat="44.60175" lon="5.02123">
        <ele>309.2</ele>
        <time>2011-12-28T10:53:49Z</time>
      </trkpt>
      <trkpt lat="44.60174" lon="5.02126">
        <ele>309.68</ele>
        <time>2011-12-28T10:54:03Z</time>
      </trkpt>
      <trkpt lat="44.60174" lon="5.02129">
        <ele>309.68</ele>
        <time>2011-12-28T10:54:09Z</time>
      </trkpt>
      <trkpt lat="44.60169" lon="5.02141">
        <ele>310.64</ele>
        <time>2011-12-28T10:54:19Z</time>
      </trkpt>
      <trkpt lat="44.60166" lon="5.02148">
        <ele>310.64</ele>
        <time>2011-12-28T10:54:25Z</time>
      </trkpt>
      <trkpt lat="44.60163" lon="5.02157">
        <ele>309.2</ele>
        <time>2011-12-28T10:54:31Z</time>
      </trkpt>
      <trkpt lat="44.6016" lon="5.0217">
        <ele>311.12</ele>
        <time>2011-12-28T10:54:39Z</time>
      </trkpt>
      <trkpt lat="44.60159" lon="5.02182">
        <ele>312.09</ele>
        <time>2011-12-28T10:54:48Z</time>
      </trkpt>
      <trkpt lat="44.60158" lon="5.02187">
        <ele>312.09</ele>
        <time>2011-12-28T10:54:51Z</time>
      </trkpt>
      <trkpt lat="44.60158" lon="5.02195">
        <ele>313.53</ele>
        <time>2011-12-28T10:54:56Z</time>
      </trkpt>
      <trkpt lat="44.60159" lon="5.02197">
        <ele>313.53</ele>
        <time>2011-12-28T10:54:57Z</time>
      </trkpt>
      <trkpt lat="44.60164" lon="5.02209">
        <ele>315.93</ele>
        <time>2011-12-28T10:55:06Z</time>
      </trkpt>
      <trkpt lat="44.60173" lon="5.02217">
        <ele>318.81</ele>
        <time>2011-12-28T10:55:14Z</time>
      </trkpt>
      <trkpt lat="44.60176" lon="5.02219">
        <ele>319.78</ele>
        <time>2011-12-28T10:55:17Z</time>
      </trkpt>
      <trkpt lat="44.60187" lon="5.02226">
        <ele>324.1</ele>
        <time>2011-12-28T10:55:27Z</time>
      </trkpt>
      <trkpt lat="44.60192" lon="5.02232">
        <ele>325.06</ele>
        <time>2011-12-28T10:55:34Z</time>
      </trkpt>
      <trkpt lat="44.60199" lon="5.02238">
        <ele>327.47</ele>
        <time>2011-12-28T10:55:41Z</time>
      </trkpt>
      <trkpt lat="44.60201" lon="5.02241">
        <ele>328.91</ele>
        <time>2011-12-28T10:55:44Z</time>
      </trkpt>
      <trkpt lat="44.60202" lon="5.02243">
        <ele>328.91</ele>
        <time>2011-12-28T10:55:46Z</time>
      </trkpt>
      <trkpt lat="44.60203" lon="5.02244">
        <ele>328.43</ele>
        <time>2011-12-28T10:55:47Z</time>
      </trkpt>
      <trkpt lat="44.60205" lon="5.02246">
        <ele>328.91</ele>
        <time>2011-12-28T10:55:49Z</time>
      </trkpt>
      <trkpt lat="44.60207" lon="5.02249">
        <ele>327.95</ele>
        <time>2011-12-28T10:55:51Z</time>
      </trkpt>
      <trkpt lat="44.60208" lon="5.02251">
        <ele>327.95</ele>
        <time>2011-12-28T10:55:52Z</time>
      </trkpt>
      <trkpt lat="44.60208" lon="5.02252">
        <ele>327.95</ele>
        <time>2011-12-28T10:55:53Z</time>
      </trkpt>
      <trkpt lat="44.60209" lon="5.02254">
        <ele>327.47</ele>
        <time>2011-12-28T10:55:54Z</time>
      </trkpt>
      <trkpt lat="44.6021" lon="5.02255">
        <ele>327.47</ele>
        <time>2011-12-28T10:55:55Z</time>
      </trkpt>
      <trkpt lat="44.60211" lon="5.02257">
        <ele>326.99</ele>
        <time>2011-12-28T10:55:56Z</time>
      </trkpt>
      <trkpt lat="44.60212" lon="5.02258">
        <ele>326.99</ele>
        <time>2011-12-28T10:55:57Z</time>
      </trkpt>
      <trkpt lat="44.60215" lon="5.02269">
        <ele>326.5</ele>
        <time>2011-12-28T10:56:04Z</time>
      </trkpt>
      <trkpt lat="44.60218" lon="5.02276">
        <ele>326.99</ele>
        <time>2011-12-28T10:56:10Z</time>
      </trkpt>
      <trkpt lat="44.60226" lon="5.02278">
        <ele>326.99</ele>
        <time>2011-12-28T10:56:18Z</time>
      </trkpt>
      <trkpt lat="44.60227" lon="5.02277">
        <ele>326.99</ele>
        <time>2011-12-28T10:56:19Z</time>
      </trkpt>
      <trkpt lat="44.60232" lon="5.02269">
        <ele>327.95</ele>
        <time>2011-12-28T10:56:25Z</time>
      </trkpt>
      <trkpt lat="44.60232" lon="5.02268">
        <ele>327.95</ele>
        <time>2011-12-28T10:56:26Z</time>
      </trkpt>
      <trkpt lat="44.60233" lon="5.02267">
        <ele>327.95</ele>
        <time>2011-12-28T10:56:27Z</time>
      </trkpt>
      <trkpt lat="44.60234" lon="5.02261">
        <ele>328.43</ele>
        <time>2011-12-28T10:56:32Z</time>
      </trkpt>
      <trkpt lat="44.60235" lon="5.02254">
        <ele>328.91</ele>
        <time>2011-12-28T10:56:36Z</time>
      </trkpt>
      <trkpt lat="44.60235" lon="5.02252">
        <ele>329.39</ele>
        <time>2011-12-28T10:56:37Z</time>
      </trkpt>
      <trkpt lat="44.60235" lon="5.02245">
        <ele>329.87</ele>
        <time>2011-12-28T10:56:42Z</time>
      </trkpt>
      <trkpt lat="44.60234" lon="5.02232">
        <ele>331.31</ele>
        <time>2011-12-28T10:56:50Z</time>
      </trkpt>
      <trkpt lat="44.60234" lon="5.0223">
        <ele>331.31</ele>
        <time>2011-12-28T10:56:51Z</time>
      </trkpt>
      <trkpt lat="44.60234" lon="5.02229">
        <ele>331.31</ele>
        <time>2011-12-28T10:56:52Z</time>
      </trkpt>
      <trkpt lat="44.60238" lon="5.02216">
        <ele>332.75</ele>
        <time>2011-12-28T10:57:00Z</time>
      </trkpt>
      <trkpt lat="44.60239" lon="5.02215">
        <ele>332.75</ele>
        <time>2011-12-28T10:57:01Z</time>
      </trkpt>
      <trkpt lat="44.60239" lon="5.02214">
        <ele>332.75</ele>
        <time>2011-12-28T10:57:02Z</time>
      </trkpt>
      <trkpt lat="44.6024" lon="5.02213">
        <ele>332.75</ele>
        <time>2011-12-28T10:57:09Z</time>
      </trkpt>
      <trkpt lat="44.6024" lon="5.02213">
        <ele>332.75</ele>
        <time>2011-12-28T10:57:19Z</time>
      </trkpt>
      <trkpt lat="44.6024" lon="5.02213">
        <ele>332.75</ele>
        <time>2011-12-28T10:57:32Z</time>
      </trkpt>
      <trkpt lat="44.6024" lon="5.02213">
        <ele>332.75</ele>
        <time>2011-12-28T10:57:43Z</time>
      </trkpt>
      <trkpt lat="44.6024" lon="5.02213">
        <ele>332.75</ele>
        <time>2011-12-28T10:57:53Z</time>
      </trkpt>
      <trkpt lat="44.60241" lon="5.02214">
        <ele>332.75</ele>
        <time>2011-12-28T10:58:02Z</time>
      </trkpt>
      <trkpt lat="44.60243" lon="5.02217">
        <ele>331.79</ele>
        <time>2011-12-28T10:58:05Z</time>
      </trkpt>
      <trkpt lat="44.60244" lon="5.02219">
        <ele>331.79</ele>
        <time>2011-12-28T10:58:06Z</time>
      </trkpt>
      <trkpt lat="44.60247" lon="5.02226">
        <ele>331.79</ele>
        <time>2011-12-28T10:58:12Z</time>
      </trkpt>
      <trkpt lat="44.60247" lon="5.02229">
        <ele>331.79</ele>
        <time>2011-12-28T10:58:14Z</time>
      </trkpt>
      <trkpt lat="44.6025" lon="5.02243">
        <ele>332.27</ele>
        <time>2011-12-28T10:58:22Z</time>
      </trkpt>
      <trkpt lat="44.60253" lon="5.02256">
        <ele>332.75</ele>
        <time>2011-12-28T10:58:31Z</time>
      </trkpt>
      <trkpt lat="44.60256" lon="5.0227">
        <ele>332.75</ele>
        <time>2011-12-28T10:58:39Z</time>
      </trkpt>
      <trkpt lat="44.6026" lon="5.02278">
        <ele>334.2</ele>
        <time>2011-12-28T10:58:45Z</time>
      </trkpt>
      <trkpt lat="44.60264" lon="5.02288">
        <ele>336.12</ele>
        <time>2011-12-28T10:58:52Z</time>
      </trkpt>
      <trkpt lat="44.60264" lon="5.02288">
        <ele>336.12</ele>
        <time>2011-12-28T10:58:52Z</time>
      </trkpt>
      <trkpt lat="44.60267" lon="5.02297">
        <ele>337.56</ele>
        <time>2011-12-28T10:58:59Z</time>
      </trkpt>
      <trkpt lat="44.60271" lon="5.02307">
        <ele>339.48</ele>
        <time>2011-12-28T10:59:05Z</time>
      </trkpt>
      <trkpt lat="44.60272" lon="5.02307">
        <ele>339.48</ele>
        <time>2011-12-28T10:59:11Z</time>
      </trkpt>
      <trkpt lat="44.60272" lon="5.02307">
        <ele>339.96</ele>
        <time>2011-12-28T10:59:19Z</time>
      </trkpt>
      <trkpt lat="44.60275" lon="5.02308">
        <ele>341.89</ele>
        <time>2011-12-28T10:59:24Z</time>
      </trkpt>
      <trkpt lat="44.60279" lon="5.02305">
        <ele>345.25</ele>
        <time>2011-12-28T10:59:28Z</time>
      </trkpt>
      <trkpt lat="44.6028" lon="5.02296">
        <ele>349.58</ele>
        <time>2011-12-28T10:59:35Z</time>
      </trkpt>
      <trkpt lat="44.60284" lon="5.02286">
        <ele>351.98</ele>
        <time>2011-12-28T10:59:42Z</time>
      </trkpt>
      <trkpt lat="44.60284" lon="5.02285">
        <ele>352.46</ele>
        <time>2011-12-28T10:59:43Z</time>
      </trkpt>
      <trkpt lat="44.60286" lon="5.02278">
        <ele>353.9</ele>
        <time>2011-12-28T10:59:48Z</time>
      </trkpt>
      <trkpt lat="44.60287" lon="5.02276">
        <ele>353.9</ele>
        <time>2011-12-28T10:59:49Z</time>
      </trkpt>
      <trkpt lat="44.60287" lon="5.02275">
        <ele>354.38</ele>
        <time>2011-12-28T10:59:55Z</time>
      </trkpt>
      <trkpt lat="44.60288" lon="5.02273">
        <ele>354.38</ele>
        <time>2011-12-28T11:00:12Z</time>
      </trkpt>
      <trkpt lat="44.60293" lon="5.02268">
        <ele>355.34</ele>
        <time>2011-12-28T11:00:18Z</time>
      </trkpt>
      <trkpt lat="44.60293" lon="5.02267">
        <ele>355.34</ele>
        <time>2011-12-28T11:00:19Z</time>
      </trkpt>
      <trkpt lat="44.60296" lon="5.02264">
        <ele>356.31</ele>
        <time>2011-12-28T11:00:22Z</time>
      </trkpt>
      <trkpt lat="44.60297" lon="5.02264">
        <ele>356.31</ele>
        <time>2011-12-28T11:00:23Z</time>
      </trkpt>
      <trkpt lat="44.60306" lon="5.02262">
        <ele>356.79</ele>
        <time>2011-12-28T11:00:31Z</time>
      </trkpt>
      <trkpt lat="44.60312" lon="5.0226">
        <ele>357.27</ele>
        <time>2011-12-28T11:00:37Z</time>
      </trkpt>
      <trkpt lat="44.60313" lon="5.0226">
        <ele>357.27</ele>
        <time>2011-12-28T11:00:38Z</time>
      </trkpt>
      <trkpt lat="44.60314" lon="5.0226">
        <ele>357.75</ele>
        <time>2011-12-28T11:00:39Z</time>
      </trkpt>
      <trkpt lat="44.60321" lon="5.02259">
        <ele>359.67</ele>
        <time>2011-12-28T11:00:45Z</time>
      </trkpt>
      <trkpt lat="44.60326" lon="5.02256">
        <ele>362.07</ele>
        <time>2011-12-28T11:00:51Z</time>
      </trkpt>
      <trkpt lat="44.60327" lon="5.02255">
        <ele>362.07</ele>
        <time>2011-12-28T11:00:52Z</time>
      </trkpt>
      <trkpt lat="44.60334" lon="5.02253">
        <ele>363.52</ele>
        <time>2011-12-28T11:00:59Z</time>
      </trkpt>
      <trkpt lat="44.60343" lon="5.0225">
        <ele>363.52</ele>
        <time>2011-12-28T11:01:06Z</time>
      </trkpt>
      <trkpt lat="44.60349" lon="5.02251">
        <ele>364</ele>
        <time>2011-12-28T11:01:11Z</time>
      </trkpt>
      <trkpt lat="44.60351" lon="5.02251">
        <ele>364</ele>
        <time>2011-12-28T11:01:12Z</time>
      </trkpt>
      <trkpt lat="44.60352" lon="5.02252">
        <ele>364</ele>
        <time>2011-12-28T11:01:13Z</time>
      </trkpt>
      <trkpt lat="44.60353" lon="5.02254">
        <ele>364</ele>
        <time>2011-12-28T11:01:14Z</time>
      </trkpt>
      <trkpt lat="44.60355" lon="5.02262">
        <ele>364.48</ele>
        <time>2011-12-28T11:01:20Z</time>
      </trkpt>
      <trkpt lat="44.60358" lon="5.02272">
        <ele>364.96</ele>
        <time>2011-12-28T11:01:27Z</time>
      </trkpt>
      <trkpt lat="44.60361" lon="5.02279">
        <ele>364</ele>
        <time>2011-12-28T11:01:33Z</time>
      </trkpt>
      <trkpt lat="44.60365" lon="5.02287">
        <ele>364.48</ele>
        <time>2011-12-28T11:01:39Z</time>
      </trkpt>
      <trkpt lat="44.6037" lon="5.02294">
        <ele>364.96</ele>
        <time>2011-12-28T11:01:46Z</time>
      </trkpt>
      <trkpt lat="44.60375" lon="5.023">
        <ele>365.92</ele>
        <time>2011-12-28T11:01:53Z</time>
      </trkpt>
      <trkpt lat="44.60381" lon="5.02306">
        <ele>366.88</ele>
        <time>2011-12-28T11:01:59Z</time>
      </trkpt>
      <trkpt lat="44.60389" lon="5.02311">
        <ele>367.36</ele>
        <time>2011-12-28T11:02:07Z</time>
      </trkpt>
      <trkpt lat="44.60392" lon="5.02313">
        <ele>368.32</ele>
        <time>2011-12-28T11:02:13Z</time>
      </trkpt>
      <trkpt lat="44.60396" lon="5.02314">
        <ele>368.8</ele>
        <time>2011-12-28T11:02:15Z</time>
      </trkpt>
      <trkpt lat="44.60407" lon="5.02316">
        <ele>372.65</ele>
        <time>2011-12-28T11:02:22Z</time>
      </trkpt>
      <trkpt lat="44.60418" lon="5.02314">
        <ele>376.97</ele>
        <time>2011-12-28T11:02:31Z</time>
      </trkpt>
      <trkpt lat="44.60428" lon="5.02311">
        <ele>380.34</ele>
        <time>2011-12-28T11:02:39Z</time>
      </trkpt>
      <trkpt lat="44.60435" lon="5.02311">
        <ele>382.74</ele>
        <time>2011-12-28T11:02:45Z</time>
      </trkpt>
      <trkpt lat="44.60442" lon="5.02309">
        <ele>384.66</ele>
        <time>2011-12-28T11:02:51Z</time>
      </trkpt>
      <trkpt lat="44.6045" lon="5.02309">
        <ele>387.07</ele>
        <time>2011-12-28T11:02:58Z</time>
      </trkpt>
      <trkpt lat="44.60457" lon="5.02311">
        <ele>385.63</ele>
        <time>2011-12-28T11:03:05Z</time>
      </trkpt>
      <trkpt lat="44.60469" lon="5.02315">
        <ele>385.15</ele>
        <time>2011-12-28T11:03:13Z</time>
      </trkpt>
      <trkpt lat="44.60474" lon="5.02316">
        <ele>385.63</ele>
        <time>2011-12-28T11:03:17Z</time>
      </trkpt>
      <trkpt lat="44.60483" lon="5.02317">
        <ele>387.55</ele>
        <time>2011-12-28T11:03:25Z</time>
      </trkpt>
      <trkpt lat="44.60489" lon="5.02319">
        <ele>387.55</ele>
        <time>2011-12-28T11:03:30Z</time>
      </trkpt>
      <trkpt lat="44.60498" lon="5.02325">
        <ele>387.55</ele>
        <time>2011-12-28T11:03:38Z</time>
      </trkpt>
      <trkpt lat="44.60508" lon="5.02331">
        <ele>388.99</ele>
        <time>2011-12-28T11:03:47Z</time>
      </trkpt>
      <trkpt lat="44.60513" lon="5.02339">
        <ele>391.87</ele>
        <time>2011-12-28T11:03:55Z</time>
      </trkpt>
      <trkpt lat="44.60517" lon="5.02343">
        <ele>392.36</ele>
        <time>2011-12-28T11:04:08Z</time>
      </trkpt>
      <trkpt lat="44.60525" lon="5.02349">
        <ele>392.84</ele>
        <time>2011-12-28T11:04:17Z</time>
      </trkpt>
      <trkpt lat="44.60527" lon="5.02348">
        <ele>393.32</ele>
        <time>2011-12-28T11:04:19Z</time>
      </trkpt>
      <trkpt lat="44.60529" lon="5.02344">
        <ele>393.32</ele>
        <time>2011-12-28T11:04:22Z</time>
      </trkpt>
      <trkpt lat="44.60528" lon="5.02339">
        <ele>392.36</ele>
        <time>2011-12-28T11:04:26Z</time>
      </trkpt>
      <trkpt lat="44.60527" lon="5.02332">
        <ele>392.36</ele>
        <time>2011-12-28T11:04:31Z</time>
      </trkpt>
      <trkpt lat="44.60527" lon="5.0233">
        <ele>392.36</ele>
        <time>2011-12-28T11:04:32Z</time>
      </trkpt>
      <trkpt lat="44.60527" lon="5.02327">
        <ele>391.87</ele>
        <time>2011-12-28T11:04:39Z</time>
      </trkpt>
      <trkpt lat="44.60527" lon="5.02327">
        <ele>391.87</ele>
        <time>2011-12-28T11:04:54Z</time>
      </trkpt>
      <trkpt lat="44.60527" lon="5.02325">
        <ele>390.91</ele>
        <time>2011-12-28T11:05:07Z</time>
      </trkpt>
      <trkpt lat="44.60529" lon="5.0231">
        <ele>390.43</ele>
        <time>2011-12-28T11:05:16Z</time>
      </trkpt>
      <trkpt lat="44.60533" lon="5.02299">
        <ele>391.39</ele>
        <time>2011-12-28T11:05:24Z</time>
      </trkpt>
      <trkpt lat="44.60537" lon="5.02288">
        <ele>393.32</ele>
        <time>2011-12-28T11:05:32Z</time>
      </trkpt>
      <trkpt lat="44.60538" lon="5.02287">
        <ele>393.8</ele>
        <time>2011-12-28T11:05:33Z</time>
      </trkpt>
      <trkpt lat="44.6054" lon="5.02284">
        <ele>394.28</ele>
        <time>2011-12-28T11:05:35Z</time>
      </trkpt>
      <trkpt lat="44.60543" lon="5.02274">
        <ele>395.72</ele>
        <time>2011-12-28T11:05:42Z</time>
      </trkpt>
      <trkpt lat="44.60546" lon="5.02264">
        <ele>396.2</ele>
        <time>2011-12-28T11:05:48Z</time>
      </trkpt>
      <trkpt lat="44.60543" lon="5.02259">
        <ele>396.2</ele>
        <time>2011-12-28T11:05:52Z</time>
      </trkpt>
      <trkpt lat="44.60542" lon="5.02257">
        <ele>395.72</ele>
        <time>2011-12-28T11:05:54Z</time>
      </trkpt>
      <trkpt lat="44.60537" lon="5.02248">
        <ele>396.68</ele>
        <time>2011-12-28T11:06:02Z</time>
      </trkpt>
      <trkpt lat="44.60538" lon="5.02238">
        <ele>397.64</ele>
        <time>2011-12-28T11:06:08Z</time>
      </trkpt>
      <trkpt lat="44.60539" lon="5.02237">
        <ele>398.12</ele>
        <time>2011-12-28T11:06:09Z</time>
      </trkpt>
      <trkpt lat="44.60543" lon="5.02232">
        <ele>399.57</ele>
        <time>2011-12-28T11:06:15Z</time>
      </trkpt>
      <trkpt lat="44.60546" lon="5.02232">
        <ele>400.05</ele>
        <time>2011-12-28T11:06:19Z</time>
      </trkpt>
      <trkpt lat="44.60547" lon="5.02232">
        <ele>400.53</ele>
        <time>2011-12-28T11:06:20Z</time>
      </trkpt>
      <trkpt lat="44.6055" lon="5.0223">
        <ele>401.01</ele>
        <time>2011-12-28T11:06:22Z</time>
      </trkpt>
      <trkpt lat="44.60551" lon="5.0223">
        <ele>401.49</ele>
        <time>2011-12-28T11:06:23Z</time>
      </trkpt>
      <trkpt lat="44.6056" lon="5.02228">
        <ele>405.33</ele>
        <time>2011-12-28T11:06:32Z</time>
      </trkpt>
      <trkpt lat="44.60566" lon="5.02226">
        <ele>407.74</ele>
        <time>2011-12-28T11:06:38Z</time>
      </trkpt>
      <trkpt lat="44.60575" lon="5.02225">
        <ele>410.14</ele>
        <time>2011-12-28T11:06:46Z</time>
      </trkpt>
      <trkpt lat="44.60582" lon="5.02223">
        <ele>411.58</ele>
        <time>2011-12-28T11:06:53Z</time>
      </trkpt>
      <trkpt lat="44.6059" lon="5.02221">
        <ele>413.5</ele>
        <time>2011-12-28T11:07:00Z</time>
      </trkpt>
      <trkpt lat="44.60602" lon="5.02221">
        <ele>413.98</ele>
        <time>2011-12-28T11:07:09Z</time>
      </trkpt>
      <trkpt lat="44.60609" lon="5.02221">
        <ele>415.91</ele>
        <time>2011-12-28T11:07:15Z</time>
      </trkpt>
      <trkpt lat="44.60615" lon="5.02219">
        <ele>417.35</ele>
        <time>2011-12-28T11:07:21Z</time>
      </trkpt>
      <trkpt lat="44.60615" lon="5.02217">
        <ele>417.83</ele>
        <time>2011-12-28T11:07:22Z</time>
      </trkpt>
      <trkpt lat="44.60616" lon="5.02216">
        <ele>418.79</ele>
        <time>2011-12-28T11:07:23Z</time>
      </trkpt>
      <trkpt lat="44.60616" lon="5.02215">
        <ele>418.79</ele>
        <time>2011-12-28T11:07:24Z</time>
      </trkpt>
      <trkpt lat="44.60617" lon="5.02205">
        <ele>422.64</ele>
        <time>2011-12-28T11:07:32Z</time>
      </trkpt>
      <trkpt lat="44.60617" lon="5.02203">
        <ele>422.64</ele>
        <time>2011-12-28T11:07:33Z</time>
      </trkpt>
      <trkpt lat="44.60617" lon="5.02201">
        <ele>423.12</ele>
        <time>2011-12-28T11:07:34Z</time>
      </trkpt>
      <trkpt lat="44.60618" lon="5.02193">
        <ele>426</ele>
        <time>2011-12-28T11:07:40Z</time>
      </trkpt>
      <trkpt lat="44.60618" lon="5.02181">
        <ele>427.92</ele>
        <time>2011-12-28T11:07:48Z</time>
      </trkpt>
      <trkpt lat="44.60616" lon="5.02173">
        <ele>428.4</ele>
        <time>2011-12-28T11:07:53Z</time>
      </trkpt>
      <trkpt lat="44.60616" lon="5.02171">
        <ele>428.89</ele>
        <time>2011-12-28T11:07:54Z</time>
      </trkpt>
      <trkpt lat="44.60614" lon="5.02166">
        <ele>429.85</ele>
        <time>2011-12-28T11:07:58Z</time>
      </trkpt>
      <trkpt lat="44.60613" lon="5.02164">
        <ele>429.85</ele>
        <time>2011-12-28T11:07:59Z</time>
      </trkpt>
      <trkpt lat="44.60612" lon="5.02163">
        <ele>430.33</ele>
        <time>2011-12-28T11:08:00Z</time>
      </trkpt>
      <trkpt lat="44.60611" lon="5.02161">
        <ele>430.81</ele>
        <time>2011-12-28T11:08:01Z</time>
      </trkpt>
      <trkpt lat="44.60605" lon="5.02153">
        <ele>434.17</ele>
        <time>2011-12-28T11:08:09Z</time>
      </trkpt>
      <trkpt lat="44.60602" lon="5.02149">
        <ele>435.13</ele>
        <time>2011-12-28T11:08:13Z</time>
      </trkpt>
      <trkpt lat="44.606" lon="5.02146">
        <ele>435.61</ele>
        <time>2011-12-28T11:08:15Z</time>
      </trkpt>
      <trkpt lat="44.60599" lon="5.02145">
        <ele>435.61</ele>
        <time>2011-12-28T11:08:16Z</time>
      </trkpt>
      <trkpt lat="44.60598" lon="5.02144">
        <ele>436.1</ele>
        <time>2011-12-28T11:08:17Z</time>
      </trkpt>
      <trkpt lat="44.60597" lon="5.02143">
        <ele>436.58</ele>
        <time>2011-12-28T11:08:18Z</time>
      </trkpt>
      <trkpt lat="44.6059" lon="5.02132">
        <ele>438.5</ele>
        <time>2011-12-28T11:08:27Z</time>
      </trkpt>
      <trkpt lat="44.60586" lon="5.02124">
        <ele>439.94</ele>
        <time>2011-12-28T11:08:34Z</time>
      </trkpt>
      <trkpt lat="44.60579" lon="5.02114">
        <ele>442.34</ele>
        <time>2011-12-28T11:08:42Z</time>
      </trkpt>
      <trkpt lat="44.60577" lon="5.02113">
        <ele>441.86</ele>
        <time>2011-12-28T11:08:49Z</time>
      </trkpt>
      <trkpt lat="44.60576" lon="5.02112">
        <ele>441.86</ele>
        <time>2011-12-28T11:09:01Z</time>
      </trkpt>
      <trkpt lat="44.60574" lon="5.02111">
        <ele>442.34</ele>
        <time>2011-12-28T11:09:07Z</time>
      </trkpt>
      <trkpt lat="44.60573" lon="5.0211">
        <ele>442.34</ele>
        <time>2011-12-28T11:09:08Z</time>
      </trkpt>
      <trkpt lat="44.60572" lon="5.02109">
        <ele>442.34</ele>
        <time>2011-12-28T11:09:09Z</time>
      </trkpt>
      <trkpt lat="44.60569" lon="5.02104">
        <ele>443.31</ele>
        <time>2011-12-28T11:09:13Z</time>
      </trkpt>
      <trkpt lat="44.60568" lon="5.02103">
        <ele>443.31</ele>
        <time>2011-12-28T11:09:14Z</time>
      </trkpt>
      <trkpt lat="44.60562" lon="5.02095">
        <ele>443.79</ele>
        <time>2011-12-28T11:09:22Z</time>
      </trkpt>
      <trkpt lat="44.6056" lon="5.02091">
        <ele>443.79</ele>
        <time>2011-12-28T11:09:25Z</time>
      </trkpt>
      <trkpt lat="44.60559" lon="5.02089">
        <ele>443.79</ele>
        <time>2011-12-28T11:09:26Z</time>
      </trkpt>
      <trkpt lat="44.60557" lon="5.02082">
        <ele>444.75</ele>
        <time>2011-12-28T11:09:32Z</time>
      </trkpt>
      <trkpt lat="44.60557" lon="5.02081">
        <ele>445.23</ele>
        <time>2011-12-28T11:09:33Z</time>
      </trkpt>
      <trkpt lat="44.60558" lon="5.02079">
        <ele>445.23</ele>
        <time>2011-12-28T11:09:34Z</time>
      </trkpt>
      <trkpt lat="44.60561" lon="5.02067">
        <ele>446.67</ele>
        <time>2011-12-28T11:09:42Z</time>
      </trkpt>
      <trkpt lat="44.60562" lon="5.02066">
        <ele>446.67</ele>
        <time>2011-12-28T11:09:43Z</time>
      </trkpt>
      <trkpt lat="44.60568" lon="5.02062">
        <ele>448.11</ele>
        <time>2011-12-28T11:09:50Z</time>
      </trkpt>
      <trkpt lat="44.60571" lon="5.02062">
        <ele>449.07</ele>
        <time>2011-12-28T11:09:53Z</time>
      </trkpt>
      <trkpt lat="44.60579" lon="5.02064">
        <ele>449.55</ele>
        <time>2011-12-28T11:10:01Z</time>
      </trkpt>
      <trkpt lat="44.60581" lon="5.02064">
        <ele>449.55</ele>
        <time>2011-12-28T11:10:02Z</time>
      </trkpt>
      <trkpt lat="44.60589" lon="5.02063">
        <ele>450.52</ele>
        <time>2011-12-28T11:10:09Z</time>
      </trkpt>
      <trkpt lat="44.6059" lon="5.02063">
        <ele>451</ele>
        <time>2011-12-28T11:10:10Z</time>
      </trkpt>
      <trkpt lat="44.60598" lon="5.02061">
        <ele>452.44</ele>
        <time>2011-12-28T11:10:17Z</time>
      </trkpt>
      <trkpt lat="44.60602" lon="5.02062">
        <ele>453.4</ele>
        <time>2011-12-28T11:10:23Z</time>
      </trkpt>
      <trkpt lat="44.60602" lon="5.02062">
        <ele>453.4</ele>
        <time>2011-12-28T11:10:40Z</time>
      </trkpt>
      <trkpt lat="44.60605" lon="5.02063">
        <ele>454.36</ele>
        <time>2011-12-28T11:10:53Z</time>
      </trkpt>
      <trkpt lat="44.60612" lon="5.02066">
        <ele>457.24</ele>
        <time>2011-12-28T11:11:00Z</time>
      </trkpt>
      <trkpt lat="44.6062" lon="5.02069">
        <ele>460.13</ele>
        <time>2011-12-28T11:11:08Z</time>
      </trkpt>
      <trkpt lat="44.60622" lon="5.02069">
        <ele>460.13</ele>
        <time>2011-12-28T11:11:15Z</time>
      </trkpt>
      <trkpt lat="44.60622" lon="5.02069">
        <ele>460.13</ele>
        <time>2011-12-28T11:11:31Z</time>
      </trkpt>
      <trkpt lat="44.6062" lon="5.0207">
        <ele>460.61</ele>
        <time>2011-12-28T11:11:42Z</time>
      </trkpt>
      <trkpt lat="44.6062" lon="5.0207">
        <ele>460.61</ele>
        <time>2011-12-28T11:11:54Z</time>
      </trkpt>
      <trkpt lat="44.6062" lon="5.0207">
        <ele>460.61</ele>
        <time>2011-12-28T11:12:05Z</time>
      </trkpt>
      <trkpt lat="44.6062" lon="5.02069">
        <ele>460.61</ele>
        <time>2011-12-28T11:12:11Z</time>
      </trkpt>
      <trkpt lat="44.6062" lon="5.02068">
        <ele>460.13</ele>
        <time>2011-12-28T11:12:16Z</time>
      </trkpt>
      <trkpt lat="44.60622" lon="5.02068">
        <ele>460.61</ele>
        <time>2011-12-28T11:12:18Z</time>
      </trkpt>
      <trkpt lat="44.6063" lon="5.02073">
        <ele>461.09</ele>
        <time>2011-12-28T11:12:26Z</time>
      </trkpt>
      <trkpt lat="44.60637" lon="5.02076">
        <ele>462.05</ele>
        <time>2011-12-28T11:12:34Z</time>
      </trkpt>
      <trkpt lat="44.60643" lon="5.02077">
        <ele>463.49</ele>
        <time>2011-12-28T11:12:39Z</time>
      </trkpt>
      <trkpt lat="44.60651" lon="5.02079">
        <ele>466.86</ele>
        <time>2011-12-28T11:12:48Z</time>
      </trkpt>
      <trkpt lat="44.60658" lon="5.02077">
        <ele>470.22</ele>
        <time>2011-12-28T11:12:55Z</time>
      </trkpt>
      <trkpt lat="44.60659" lon="5.02077">
        <ele>470.22</ele>
        <time>2011-12-28T11:12:56Z</time>
      </trkpt>
      <trkpt lat="44.60666" lon="5.02077">
        <ele>472.63</ele>
        <time>2011-12-28T11:13:03Z</time>
      </trkpt>
      <trkpt lat="44.60674" lon="5.02079">
        <ele>474.55</ele>
        <time>2011-12-28T11:13:12Z</time>
      </trkpt>
      <trkpt lat="44.60683" lon="5.02083">
        <ele>476.47</ele>
        <time>2011-12-28T11:13:20Z</time>
      </trkpt>
      <trkpt lat="44.60688" lon="5.02081">
        <ele>477.43</ele>
        <time>2011-12-28T11:13:25Z</time>
      </trkpt>
      <trkpt lat="44.60689" lon="5.02081">
        <ele>477.91</ele>
        <time>2011-12-28T11:13:26Z</time>
      </trkpt>
      <trkpt lat="44.60691" lon="5.0208">
        <ele>477.91</ele>
        <time>2011-12-28T11:13:27Z</time>
      </trkpt>
      <trkpt lat="44.60692" lon="5.02079">
        <ele>477.91</ele>
        <time>2011-12-28T11:13:28Z</time>
      </trkpt>
      <trkpt lat="44.60698" lon="5.02078">
        <ele>479.35</ele>
        <time>2011-12-28T11:13:34Z</time>
      </trkpt>
      <trkpt lat="44.60703" lon="5.02072">
        <ele>481.28</ele>
        <time>2011-12-28T11:13:41Z</time>
      </trkpt>
      <trkpt lat="44.6071" lon="5.02069">
        <ele>482.72</ele>
        <time>2011-12-28T11:13:47Z</time>
      </trkpt>
      <trkpt lat="44.60715" lon="5.02067">
        <ele>484.16</ele>
        <time>2011-12-28T11:13:52Z</time>
      </trkpt>
      <trkpt lat="44.6072" lon="5.02062">
        <ele>486.08</ele>
        <time>2011-12-28T11:13:58Z</time>
      </trkpt>
      <trkpt lat="44.60721" lon="5.02061">
        <ele>486.08</ele>
        <time>2011-12-28T11:13:59Z</time>
      </trkpt>
      <trkpt lat="44.60729" lon="5.02058">
        <ele>487.05</ele>
        <time>2011-12-28T11:14:07Z</time>
      </trkpt>
      <trkpt lat="44.60738" lon="5.02058">
        <ele>488.49</ele>
        <time>2011-12-28T11:14:15Z</time>
      </trkpt>
      <trkpt lat="44.60745" lon="5.02059">
        <ele>489.93</ele>
        <time>2011-12-28T11:14:22Z</time>
      </trkpt>
      <trkpt lat="44.60753" lon="5.02058">
        <ele>492.81</ele>
        <time>2011-12-28T11:14:30Z</time>
      </trkpt>
      <trkpt lat="44.60756" lon="5.02056">
        <ele>493.29</ele>
        <time>2011-12-28T11:14:33Z</time>
      </trkpt>
      <trkpt lat="44.60763" lon="5.02053">
        <ele>494.74</ele>
        <time>2011-12-28T11:14:40Z</time>
      </trkpt>
      <trkpt lat="44.60774" lon="5.02052">
        <ele>496.66</ele>
        <time>2011-12-28T11:14:50Z</time>
      </trkpt>
      <trkpt lat="44.60779" lon="5.02051">
        <ele>497.14</ele>
        <time>2011-12-28T11:14:55Z</time>
      </trkpt>
      <trkpt lat="44.60781" lon="5.0205">
        <ele>496.66</ele>
        <time>2011-12-28T11:14:56Z</time>
      </trkpt>
      <trkpt lat="44.60782" lon="5.02049">
        <ele>496.18</ele>
        <time>2011-12-28T11:14:57Z</time>
      </trkpt>
      <trkpt lat="44.60788" lon="5.02053">
        <ele>497.14</ele>
        <time>2011-12-28T11:15:04Z</time>
      </trkpt>
      <trkpt lat="44.60791" lon="5.02058">
        <ele>497.14</ele>
        <time>2011-12-28T11:15:10Z</time>
      </trkpt>
      <trkpt lat="44.60794" lon="5.02061">
        <ele>499.06</ele>
        <time>2011-12-28T11:15:17Z</time>
      </trkpt>
      <trkpt lat="44.60797" lon="5.02069">
        <ele>500.5</ele>
        <time>2011-12-28T11:15:24Z</time>
      </trkpt>
      <trkpt lat="44.60801" lon="5.02076">
        <ele>501.46</ele>
        <time>2011-12-28T11:15:29Z</time>
      </trkpt>
      <trkpt lat="44.60808" lon="5.0208">
        <ele>503.39</ele>
        <time>2011-12-28T11:15:37Z</time>
      </trkpt>
      <trkpt lat="44.60813" lon="5.02083">
        <ele>504.83</ele>
        <time>2011-12-28T11:15:43Z</time>
      </trkpt>
      <trkpt lat="44.60817" lon="5.02087">
        <ele>507.23</ele>
        <time>2011-12-28T11:15:51Z</time>
      </trkpt>
      <trkpt lat="44.60822" lon="5.0209">
        <ele>507.71</ele>
        <time>2011-12-28T11:15:57Z</time>
      </trkpt>
      <trkpt lat="44.60825" lon="5.02093">
        <ele>507.71</ele>
        <time>2011-12-28T11:16:00Z</time>
      </trkpt>
      <trkpt lat="44.60833" lon="5.02096">
        <ele>508.67</ele>
        <time>2011-12-28T11:16:08Z</time>
      </trkpt>
      <trkpt lat="44.60835" lon="5.021">
        <ele>509.16</ele>
        <time>2011-12-28T11:16:11Z</time>
      </trkpt>
      <trkpt lat="44.60835" lon="5.02101">
        <ele>509.16</ele>
        <time>2011-12-28T11:16:12Z</time>
      </trkpt>
      <trkpt lat="44.60836" lon="5.02103">
        <ele>509.16</ele>
        <time>2011-12-28T11:16:13Z</time>
      </trkpt>
      <trkpt lat="44.60836" lon="5.02104">
        <ele>509.16</ele>
        <time>2011-12-28T11:16:14Z</time>
      </trkpt>
      <trkpt lat="44.60842" lon="5.02111">
        <ele>510.12</ele>
        <time>2011-12-28T11:16:21Z</time>
      </trkpt>
      <trkpt lat="44.60844" lon="5.02112">
        <ele>510.12</ele>
        <time>2011-12-28T11:16:28Z</time>
      </trkpt>
      <trkpt lat="44.60847" lon="5.02114">
        <ele>510.12</ele>
        <time>2011-12-28T11:16:40Z</time>
      </trkpt>
      <trkpt lat="44.60851" lon="5.02117">
        <ele>510.12</ele>
        <time>2011-12-28T11:16:45Z</time>
      </trkpt>
      <trkpt lat="44.60856" lon="5.02121">
        <ele>510.6</ele>
        <time>2011-12-28T11:16:50Z</time>
      </trkpt>
      <trkpt lat="44.60857" lon="5.02121">
        <ele>510.6</ele>
        <time>2011-12-28T11:16:51Z</time>
      </trkpt>
      <trkpt lat="44.60864" lon="5.02127">
        <ele>511.08</ele>
        <time>2011-12-28T11:16:59Z</time>
      </trkpt>
      <trkpt lat="44.6087" lon="5.02133">
        <ele>511.08</ele>
        <time>2011-12-28T11:17:07Z</time>
      </trkpt>
      <trkpt lat="44.6088" lon="5.02136">
        <ele>512.04</ele>
        <time>2011-12-28T11:17:16Z</time>
      </trkpt>
      <trkpt lat="44.60889" lon="5.02141">
        <ele>512.04</ele>
        <time>2011-12-28T11:17:24Z</time>
      </trkpt>
      <trkpt lat="44.60899" lon="5.02147">
        <ele>513</ele>
        <time>2011-12-28T11:17:32Z</time>
      </trkpt>
      <trkpt lat="44.60907" lon="5.02152">
        <ele>513.48</ele>
        <time>2011-12-28T11:17:40Z</time>
      </trkpt>
      <trkpt lat="44.60915" lon="5.02158">
        <ele>514.92</ele>
        <time>2011-12-28T11:17:47Z</time>
      </trkpt>
      <trkpt lat="44.6092" lon="5.02163">
        <ele>514.92</ele>
        <time>2011-12-28T11:17:54Z</time>
      </trkpt>
      <trkpt lat="44.60928" lon="5.02171">
        <ele>515.4</ele>
        <time>2011-12-28T11:18:02Z</time>
      </trkpt>
      <trkpt lat="44.60937" lon="5.02176">
        <ele>516.85</ele>
        <time>2011-12-28T11:18:10Z</time>
      </trkpt>
      <trkpt lat="44.60944" lon="5.0218">
        <ele>518.29</ele>
        <time>2011-12-28T11:18:17Z</time>
      </trkpt>
      <trkpt lat="44.60947" lon="5.02183">
        <ele>519.25</ele>
        <time>2011-12-28T11:18:20Z</time>
      </trkpt>
      <trkpt lat="44.60953" lon="5.02189">
        <ele>521.17</ele>
        <time>2011-12-28T11:18:27Z</time>
      </trkpt>
      <trkpt lat="44.6096" lon="5.02194">
        <ele>522.13</ele>
        <time>2011-12-28T11:18:34Z</time>
      </trkpt>
      <trkpt lat="44.60966" lon="5.02198">
        <ele>522.13</ele>
        <time>2011-12-28T11:18:40Z</time>
      </trkpt>
      <trkpt lat="44.60974" lon="5.02198">
        <ele>523.58</ele>
        <time>2011-12-28T11:18:47Z</time>
      </trkpt>
      <trkpt lat="44.60984" lon="5.02202">
        <ele>525.02</ele>
        <time>2011-12-28T11:18:55Z</time>
      </trkpt>
      <trkpt lat="44.60993" lon="5.02205">
        <ele>525.5</ele>
        <time>2011-12-28T11:19:03Z</time>
      </trkpt>
      <trkpt lat="44.61" lon="5.02209">
        <ele>525.5</ele>
        <time>2011-12-28T11:19:10Z</time>
      </trkpt>
      <trkpt lat="44.61002" lon="5.02209">
        <ele>525.5</ele>
        <time>2011-12-28T11:19:11Z</time>
      </trkpt>
      <trkpt lat="44.61013" lon="5.02207">
        <ele>527.42</ele>
        <time>2011-12-28T11:19:20Z</time>
      </trkpt>
      <trkpt lat="44.61018" lon="5.02212">
        <ele>526.46</ele>
        <time>2011-12-28T11:19:25Z</time>
      </trkpt>
      <trkpt lat="44.61025" lon="5.02218">
        <ele>527.42</ele>
        <time>2011-12-28T11:19:32Z</time>
      </trkpt>
      <trkpt lat="44.61034" lon="5.02224">
        <ele>528.86</ele>
        <time>2011-12-28T11:19:41Z</time>
      </trkpt>
      <trkpt lat="44.6104" lon="5.02229">
        <ele>531.27</ele>
        <time>2011-12-28T11:19:47Z</time>
      </trkpt>
      <trkpt lat="44.61045" lon="5.02239">
        <ele>531.75</ele>
        <time>2011-12-28T11:19:54Z</time>
      </trkpt>
      <trkpt lat="44.61048" lon="5.02247">
        <ele>531.75</ele>
        <time>2011-12-28T11:20:00Z</time>
      </trkpt>
      <trkpt lat="44.6105" lon="5.02256">
        <ele>531.75</ele>
        <time>2011-12-28T11:20:07Z</time>
      </trkpt>
      <trkpt lat="44.6105" lon="5.02261">
        <ele>531.27</ele>
        <time>2011-12-28T11:20:10Z</time>
      </trkpt>
      <trkpt lat="44.61051" lon="5.02271">
        <ele>530.3</ele>
        <time>2011-12-28T11:20:16Z</time>
      </trkpt>
      <trkpt lat="44.61053" lon="5.02282">
        <ele>529.82</ele>
        <time>2011-12-28T11:20:25Z</time>
      </trkpt>
      <trkpt lat="44.61055" lon="5.02293">
        <ele>528.38</ele>
        <time>2011-12-28T11:20:32Z</time>
      </trkpt>
      <trkpt lat="44.61056" lon="5.02299">
        <ele>526.94</ele>
        <time>2011-12-28T11:20:36Z</time>
      </trkpt>
      <trkpt lat="44.6106" lon="5.02308">
        <ele>524.54</ele>
        <time>2011-12-28T11:20:42Z</time>
      </trkpt>
      <trkpt lat="44.61059" lon="5.02319">
        <ele>522.61</ele>
        <time>2011-12-28T11:20:50Z</time>
      </trkpt>
      <trkpt lat="44.61057" lon="5.02327">
        <ele>521.65</ele>
        <time>2011-12-28T11:20:57Z</time>
      </trkpt>
      <trkpt lat="44.61056" lon="5.0233">
        <ele>521.65</ele>
        <time>2011-12-28T11:20:59Z</time>
      </trkpt>
      <trkpt lat="44.61052" lon="5.02339">
        <ele>521.17</ele>
        <time>2011-12-28T11:21:06Z</time>
      </trkpt>
      <trkpt lat="44.61047" lon="5.0235">
        <ele>519.25</ele>
        <time>2011-12-28T11:21:13Z</time>
      </trkpt>
      <trkpt lat="44.61045" lon="5.02353">
        <ele>518.77</ele>
        <time>2011-12-28T11:21:15Z</time>
      </trkpt>
      <trkpt lat="44.61044" lon="5.02356">
        <ele>519.25</ele>
        <time>2011-12-28T11:21:16Z</time>
      </trkpt>
      <trkpt lat="44.61043" lon="5.02358">
        <ele>519.73</ele>
        <time>2011-12-28T11:21:17Z</time>
      </trkpt>
      <trkpt lat="44.6104" lon="5.02366">
        <ele>520.69</ele>
        <time>2011-12-28T11:21:22Z</time>
      </trkpt>
      <trkpt lat="44.61037" lon="5.02374">
        <ele>522.13</ele>
        <time>2011-12-28T11:21:27Z</time>
      </trkpt>
      <trkpt lat="44.61035" lon="5.02384">
        <ele>522.61</ele>
        <time>2011-12-28T11:21:33Z</time>
      </trkpt>
      <trkpt lat="44.61032" lon="5.02402">
        <ele>524.54</ele>
        <time>2011-12-28T11:21:43Z</time>
      </trkpt>
      <trkpt lat="44.61031" lon="5.02414">
        <ele>525.98</ele>
        <time>2011-12-28T11:21:51Z</time>
      </trkpt>
      <trkpt lat="44.61031" lon="5.02416">
        <ele>525.98</ele>
        <time>2011-12-28T11:21:52Z</time>
      </trkpt>
      <trkpt lat="44.61031" lon="5.02418">
        <ele>525.98</ele>
        <time>2011-12-28T11:21:53Z</time>
      </trkpt>
      <trkpt lat="44.61031" lon="5.02419">
        <ele>525.98</ele>
        <time>2011-12-28T11:21:54Z</time>
      </trkpt>
      <trkpt lat="44.61029" lon="5.02427">
        <ele>525.98</ele>
        <time>2011-12-28T11:22:01Z</time>
      </trkpt>
      <trkpt lat="44.61028" lon="5.02433">
        <ele>525.5</ele>
        <time>2011-12-28T11:22:05Z</time>
      </trkpt>
      <trkpt lat="44.61028" lon="5.02435">
        <ele>525.5</ele>
        <time>2011-12-28T11:22:06Z</time>
      </trkpt>
      <trkpt lat="44.61025" lon="5.02442">
        <ele>524.06</ele>
        <time>2011-12-28T11:22:12Z</time>
      </trkpt>
      <trkpt lat="44.61024" lon="5.02443">
        <ele>524.06</ele>
        <time>2011-12-28T11:22:13Z</time>
      </trkpt>
      <trkpt lat="44.61016" lon="5.02451">
        <ele>521.65</ele>
        <time>2011-12-28T11:22:21Z</time>
      </trkpt>
      <trkpt lat="44.61008" lon="5.02456">
        <ele>518.29</ele>
        <time>2011-12-28T11:22:29Z</time>
      </trkpt>
      <trkpt lat="44.61001" lon="5.0247">
        <ele>516.37</ele>
        <time>2011-12-28T11:22:38Z</time>
      </trkpt>
      <trkpt lat="44.60996" lon="5.02481">
        <ele>513.96</ele>
        <time>2011-12-28T11:22:46Z</time>
      </trkpt>
      <trkpt lat="44.60991" lon="5.02494">
        <ele>512.52</ele>
        <time>2011-12-28T11:22:53Z</time>
      </trkpt>
      <trkpt lat="44.60987" lon="5.02505">
        <ele>512.04</ele>
        <time>2011-12-28T11:23:00Z</time>
      </trkpt>
      <trkpt lat="44.60986" lon="5.02506">
        <ele>512.52</ele>
        <time>2011-12-28T11:23:10Z</time>
      </trkpt>
      <trkpt lat="44.6098" lon="5.02515">
        <ele>512.04</ele>
        <time>2011-12-28T11:23:17Z</time>
      </trkpt>
      <trkpt lat="44.60974" lon="5.02524">
        <ele>510.6</ele>
        <time>2011-12-28T11:23:24Z</time>
      </trkpt>
      <trkpt lat="44.60972" lon="5.02529">
        <ele>510.12</ele>
        <time>2011-12-28T11:23:27Z</time>
      </trkpt>
      <trkpt lat="44.60971" lon="5.02534">
        <ele>510.12</ele>
        <time>2011-12-28T11:23:30Z</time>
      </trkpt>
      <trkpt lat="44.60966" lon="5.02543">
        <ele>510.12</ele>
        <time>2011-12-28T11:23:38Z</time>
      </trkpt>
      <trkpt lat="44.60961" lon="5.02553">
        <ele>511.08</ele>
        <time>2011-12-28T11:23:45Z</time>
      </trkpt>
      <trkpt lat="44.6096" lon="5.02556">
        <ele>510.6</ele>
        <time>2011-12-28T11:23:46Z</time>
      </trkpt>
      <trkpt lat="44.60958" lon="5.02557">
        <ele>510.6</ele>
        <time>2011-12-28T11:23:47Z</time>
      </trkpt>
      <trkpt lat="44.60955" lon="5.02564">
        <ele>511.56</ele>
        <time>2011-12-28T11:23:52Z</time>
      </trkpt>
      <trkpt lat="44.60954" lon="5.02565">
        <ele>511.56</ele>
        <time>2011-12-28T11:23:53Z</time>
      </trkpt>
      <trkpt lat="44.60949" lon="5.02576">
        <ele>511.08</ele>
        <time>2011-12-28T11:24:00Z</time>
      </trkpt>
      <trkpt lat="44.60944" lon="5.02584">
        <ele>512.04</ele>
        <time>2011-12-28T11:24:06Z</time>
      </trkpt>
      <trkpt lat="44.60938" lon="5.02593">
        <ele>510.6</ele>
        <time>2011-12-28T11:24:13Z</time>
      </trkpt>
      <trkpt lat="44.60933" lon="5.02601">
        <ele>510.12</ele>
        <time>2011-12-28T11:24:20Z</time>
      </trkpt>
      <trkpt lat="44.60929" lon="5.02605">
        <ele>509.64</ele>
        <time>2011-12-28T11:24:24Z</time>
      </trkpt>
      <trkpt lat="44.60924" lon="5.02617">
        <ele>508.67</ele>
        <time>2011-12-28T11:24:32Z</time>
      </trkpt>
      <trkpt lat="44.6092" lon="5.02627">
        <ele>508.19</ele>
        <time>2011-12-28T11:24:39Z</time>
      </trkpt>
      <trkpt lat="44.60915" lon="5.02643">
        <ele>507.71</ele>
        <time>2011-12-28T11:24:48Z</time>
      </trkpt>
      <trkpt lat="44.60914" lon="5.02655">
        <ele>506.27</ele>
        <time>2011-12-28T11:24:55Z</time>
      </trkpt>
      <trkpt lat="44.60913" lon="5.02667">
        <ele>505.31</ele>
        <time>2011-12-28T11:25:03Z</time>
      </trkpt>
      <trkpt lat="44.60913" lon="5.02668">
        <ele>505.31</ele>
        <time>2011-12-28T11:25:18Z</time>
      </trkpt>
      <trkpt lat="44.60918" lon="5.02677">
        <ele>506.27</ele>
        <time>2011-12-28T11:25:24Z</time>
      </trkpt>
      <trkpt lat="44.60922" lon="5.02676">
        <ele>507.23</ele>
        <time>2011-12-28T11:25:28Z</time>
      </trkpt>
      <trkpt lat="44.60923" lon="5.02675">
        <ele>507.23</ele>
        <time>2011-12-28T11:25:29Z</time>
      </trkpt>
      <trkpt lat="44.60924" lon="5.02675">
        <ele>507.23</ele>
        <time>2011-12-28T11:25:30Z</time>
      </trkpt>
      <trkpt lat="44.60934" lon="5.02668">
        <ele>509.64</ele>
        <time>2011-12-28T11:25:39Z</time>
      </trkpt>
      <trkpt lat="44.60938" lon="5.02666">
        <ele>511.08</ele>
        <time>2011-12-28T11:25:42Z</time>
      </trkpt>
      <trkpt lat="44.6094" lon="5.02664">
        <ele>511.56</ele>
        <time>2011-12-28T11:25:45Z</time>
      </trkpt>
      <trkpt lat="44.60941" lon="5.02662">
        <ele>511.56</ele>
        <time>2011-12-28T11:25:46Z</time>
      </trkpt>
      <trkpt lat="44.60943" lon="5.02661">
        <ele>512.04</ele>
        <time>2011-12-28T11:25:47Z</time>
      </trkpt>
      <trkpt lat="44.60954" lon="5.0266">
        <ele>513.96</ele>
        <time>2011-12-28T11:25:56Z</time>
      </trkpt>
      <trkpt lat="44.60965" lon="5.02658">
        <ele>514.92</ele>
        <time>2011-12-28T11:26:05Z</time>
      </trkpt>
      <trkpt lat="44.60972" lon="5.02656">
        <ele>516.85</ele>
        <time>2011-12-28T11:26:13Z</time>
      </trkpt>
      <trkpt lat="44.60972" lon="5.02656">
        <ele>516.85</ele>
        <time>2011-12-28T11:26:27Z</time>
      </trkpt>
      <trkpt lat="44.60969" lon="5.02657">
        <ele>516.37</ele>
        <time>2011-12-28T11:26:31Z</time>
      </trkpt>
      <trkpt lat="44.60968" lon="5.02658">
        <ele>516.37</ele>
        <time>2011-12-28T11:26:32Z</time>
      </trkpt>
      <trkpt lat="44.60968" lon="5.02661">
        <ele>516.37</ele>
        <time>2011-12-28T11:26:38Z</time>
      </trkpt>
      <trkpt lat="44.60968" lon="5.02662">
        <ele>515.88</ele>
        <time>2011-12-28T11:26:52Z</time>
      </trkpt>
      <trkpt lat="44.60965" lon="5.02665">
        <ele>515.4</ele>
        <time>2011-12-28T11:26:59Z</time>
      </trkpt>
      <trkpt lat="44.60967" lon="5.02664">
        <ele>514.92</ele>
        <time>2011-12-28T11:27:10Z</time>
      </trkpt>
      <trkpt lat="44.60968" lon="5.02664">
        <ele>514.92</ele>
        <time>2011-12-28T11:27:11Z</time>
      </trkpt>
      <trkpt lat="44.60973" lon="5.02657">
        <ele>514.44</ele>
        <time>2011-12-28T11:27:18Z</time>
      </trkpt>
      <trkpt lat="44.60982" lon="5.02649">
        <ele>514.92</ele>
        <time>2011-12-28T11:27:26Z</time>
      </trkpt>
      <trkpt lat="44.60983" lon="5.02647">
        <ele>514.92</ele>
        <time>2011-12-28T11:27:27Z</time>
      </trkpt>
      <trkpt lat="44.60983" lon="5.02646">
        <ele>515.4</ele>
        <time>2011-12-28T11:27:28Z</time>
      </trkpt>
      <trkpt lat="44.60985" lon="5.02645">
        <ele>515.4</ele>
        <time>2011-12-28T11:27:29Z</time>
      </trkpt>
      <trkpt lat="44.60986" lon="5.02644">
        <ele>515.88</ele>
        <time>2011-12-28T11:27:30Z</time>
      </trkpt>
      <trkpt lat="44.60989" lon="5.02642">
        <ele>516.37</ele>
        <time>2011-12-28T11:27:33Z</time>
      </trkpt>
      <trkpt lat="44.60999" lon="5.02644">
        <ele>519.25</ele>
        <time>2011-12-28T11:27:42Z</time>
      </trkpt>
      <trkpt lat="44.61003" lon="5.02643">
        <ele>519.73</ele>
        <time>2011-12-28T11:27:45Z</time>
      </trkpt>
      <trkpt lat="44.61004" lon="5.02642">
        <ele>519.73</ele>
        <time>2011-12-28T11:27:46Z</time>
      </trkpt>
      <trkpt lat="44.61006" lon="5.02642">
        <ele>519.73</ele>
        <time>2011-12-28T11:27:47Z</time>
      </trkpt>
      <trkpt lat="44.61014" lon="5.02637">
        <ele>521.65</ele>
        <time>2011-12-28T11:27:54Z</time>
      </trkpt>
      <trkpt lat="44.61023" lon="5.02634">
        <ele>523.58</ele>
        <time>2011-12-28T11:28:02Z</time>
      </trkpt>
      <trkpt lat="44.61035" lon="5.02634">
        <ele>524.54</ele>
        <time>2011-12-28T11:28:12Z</time>
      </trkpt>
      <trkpt lat="44.61043" lon="5.02633">
        <ele>525.98</ele>
        <time>2011-12-28T11:28:19Z</time>
      </trkpt>
      <trkpt lat="44.61054" lon="5.02633">
        <ele>526.46</ele>
        <time>2011-12-28T11:28:27Z</time>
      </trkpt>
      <trkpt lat="44.61063" lon="5.02628">
        <ele>527.42</ele>
        <time>2011-12-28T11:28:35Z</time>
      </trkpt>
      <trkpt lat="44.61073" lon="5.02622">
        <ele>530.79</ele>
        <time>2011-12-28T11:28:45Z</time>
      </trkpt>
      <trkpt lat="44.61081" lon="5.0262">
        <ele>533.67</ele>
        <time>2011-12-28T11:28:53Z</time>
      </trkpt>
      <trkpt lat="44.6109" lon="5.02619">
        <ele>534.63</ele>
        <time>2011-12-28T11:29:00Z</time>
      </trkpt>
      <trkpt lat="44.61092" lon="5.02618">
        <ele>534.63</ele>
        <time>2011-12-28T11:29:01Z</time>
      </trkpt>
      <trkpt lat="44.61093" lon="5.02618">
        <ele>535.11</ele>
        <time>2011-12-28T11:29:02Z</time>
      </trkpt>
      <trkpt lat="44.61094" lon="5.02617">
        <ele>535.59</ele>
        <time>2011-12-28T11:29:03Z</time>
      </trkpt>
      <trkpt lat="44.61101" lon="5.02613">
        <ele>536.55</ele>
        <time>2011-12-28T11:29:11Z</time>
      </trkpt>
      <trkpt lat="44.61104" lon="5.02612">
        <ele>537.03</ele>
        <time>2011-12-28T11:29:21Z</time>
      </trkpt>
      <trkpt lat="44.61105" lon="5.02612">
        <ele>537.51</ele>
        <time>2011-12-28T11:29:22Z</time>
      </trkpt>
      <trkpt lat="44.61107" lon="5.02611">
        <ele>537.99</ele>
        <time>2011-12-28T11:29:23Z</time>
      </trkpt>
      <trkpt lat="44.61116" lon="5.02606">
        <ele>539.92</ele>
        <time>2011-12-28T11:29:31Z</time>
      </trkpt>
      <trkpt lat="44.61125" lon="5.02604">
        <ele>540.88</ele>
        <time>2011-12-28T11:29:39Z</time>
      </trkpt>
      <trkpt lat="44.61136" lon="5.02598">
        <ele>542.32</ele>
        <time>2011-12-28T11:29:48Z</time>
      </trkpt>
      <trkpt lat="44.61148" lon="5.02589">
        <ele>543.28</ele>
        <time>2011-12-28T11:29:58Z</time>
      </trkpt>
      <trkpt lat="44.61157" lon="5.02584">
        <ele>544.24</ele>
        <time>2011-12-28T11:30:06Z</time>
      </trkpt>
      <trkpt lat="44.6116" lon="5.02582">
        <ele>544.72</ele>
        <time>2011-12-28T11:30:08Z</time>
      </trkpt>
      <trkpt lat="44.61161" lon="5.02581">
        <ele>545.2</ele>
        <time>2011-12-28T11:30:09Z</time>
      </trkpt>
      <trkpt lat="44.61162" lon="5.0258">
        <ele>545.69</ele>
        <time>2011-12-28T11:30:10Z</time>
      </trkpt>
      <trkpt lat="44.61164" lon="5.02578">
        <ele>546.17</ele>
        <time>2011-12-28T11:30:11Z</time>
      </trkpt>
      <trkpt lat="44.61165" lon="5.02577">
        <ele>546.65</ele>
        <time>2011-12-28T11:30:12Z</time>
      </trkpt>
      <trkpt lat="44.61176" lon="5.0257">
        <ele>548.57</ele>
        <time>2011-12-28T11:30:21Z</time>
      </trkpt>
      <trkpt lat="44.61182" lon="5.02562">
        <ele>549.05</ele>
        <time>2011-12-28T11:30:28Z</time>
      </trkpt>
      <trkpt lat="44.6119" lon="5.02556">
        <ele>549.53</ele>
        <time>2011-12-28T11:30:35Z</time>
      </trkpt>
      <trkpt lat="44.61199" lon="5.02547">
        <ele>550.01</ele>
        <time>2011-12-28T11:30:44Z</time>
      </trkpt>
      <trkpt lat="44.61208" lon="5.02536">
        <ele>551.45</ele>
        <time>2011-12-28T11:30:54Z</time>
      </trkpt>
      <trkpt lat="44.61213" lon="5.02523">
        <ele>551.45</ele>
        <time>2011-12-28T11:31:02Z</time>
      </trkpt>
      <trkpt lat="44.6122" lon="5.02511">
        <ele>551.93</ele>
        <time>2011-12-28T11:31:10Z</time>
      </trkpt>
      <trkpt lat="44.61222" lon="5.02508">
        <ele>552.41</ele>
        <time>2011-12-28T11:31:12Z</time>
      </trkpt>
      <trkpt lat="44.61223" lon="5.02506">
        <ele>552.41</ele>
        <time>2011-12-28T11:31:13Z</time>
      </trkpt>
      <trkpt lat="44.61231" lon="5.02497">
        <ele>553.38</ele>
        <time>2011-12-28T11:31:21Z</time>
      </trkpt>
      <trkpt lat="44.61242" lon="5.02485">
        <ele>554.34</ele>
        <time>2011-12-28T11:31:31Z</time>
      </trkpt>
      <trkpt lat="44.61252" lon="5.02478">
        <ele>555.78</ele>
        <time>2011-12-28T11:31:39Z</time>
      </trkpt>
      <trkpt lat="44.61262" lon="5.02464">
        <ele>558.18</ele>
        <time>2011-12-28T11:31:48Z</time>
      </trkpt>
      <trkpt lat="44.61264" lon="5.0246">
        <ele>558.18</ele>
        <time>2011-12-28T11:31:51Z</time>
      </trkpt>
      <trkpt lat="44.61265" lon="5.02458">
        <ele>558.18</ele>
        <time>2011-12-28T11:31:52Z</time>
      </trkpt>
      <trkpt lat="44.61266" lon="5.02457">
        <ele>558.66</ele>
        <time>2011-12-28T11:31:53Z</time>
      </trkpt>
      <trkpt lat="44.61266" lon="5.02455">
        <ele>558.66</ele>
        <time>2011-12-28T11:31:54Z</time>
      </trkpt>
      <trkpt lat="44.61267" lon="5.02453">
        <ele>559.14</ele>
        <time>2011-12-28T11:31:55Z</time>
      </trkpt>
      <trkpt lat="44.61268" lon="5.02452">
        <ele>559.14</ele>
        <time>2011-12-28T11:31:56Z</time>
      </trkpt>
      <trkpt lat="44.61276" lon="5.0244">
        <ele>560.11</ele>
        <time>2011-12-28T11:32:06Z</time>
      </trkpt>
      <trkpt lat="44.61281" lon="5.02427">
        <ele>560.11</ele>
        <time>2011-12-28T11:32:15Z</time>
      </trkpt>
      <trkpt lat="44.61288" lon="5.02412">
        <ele>560.59</ele>
        <time>2011-12-28T11:32:25Z</time>
      </trkpt>
      <trkpt lat="44.6129" lon="5.02408">
        <ele>561.07</ele>
        <time>2011-12-28T11:32:28Z</time>
      </trkpt>
      <trkpt lat="44.61291" lon="5.02406">
        <ele>561.55</ele>
        <time>2011-12-28T11:32:29Z</time>
      </trkpt>
      <trkpt lat="44.61296" lon="5.02393">
        <ele>563.47</ele>
        <time>2011-12-28T11:32:37Z</time>
      </trkpt>
      <trkpt lat="44.61299" lon="5.02376">
        <ele>564.43</ele>
        <time>2011-12-28T11:32:45Z</time>
      </trkpt>
      <trkpt lat="44.61305" lon="5.02367">
        <ele>565.39</ele>
        <time>2011-12-28T11:32:52Z</time>
      </trkpt>
      <trkpt lat="44.61312" lon="5.02358">
        <ele>565.87</ele>
        <time>2011-12-28T11:32:59Z</time>
      </trkpt>
      <trkpt lat="44.61313" lon="5.02357">
        <ele>565.87</ele>
        <time>2011-12-28T11:33:00Z</time>
      </trkpt>
      <trkpt lat="44.6132" lon="5.02348">
        <ele>566.83</ele>
        <time>2011-12-28T11:33:08Z</time>
      </trkpt>
      <trkpt lat="44.61322" lon="5.02345">
        <ele>567.32</ele>
        <time>2011-12-28T11:33:10Z</time>
      </trkpt>
      <trkpt lat="44.61322" lon="5.02344">
        <ele>567.32</ele>
        <time>2011-12-28T11:33:11Z</time>
      </trkpt>
      <trkpt lat="44.61323" lon="5.02342">
        <ele>567.32</ele>
        <time>2011-12-28T11:33:12Z</time>
      </trkpt>
      <trkpt lat="44.61332" lon="5.02332">
        <ele>568.76</ele>
        <time>2011-12-28T11:33:20Z</time>
      </trkpt>
      <trkpt lat="44.6134" lon="5.02324">
        <ele>569.24</ele>
        <time>2011-12-28T11:33:28Z</time>
      </trkpt>
      <trkpt lat="44.6135" lon="5.02314">
        <ele>570.68</ele>
        <time>2011-12-28T11:33:37Z</time>
      </trkpt>
      <trkpt lat="44.61352" lon="5.02309">
        <ele>571.16</ele>
        <time>2011-12-28T11:33:40Z</time>
      </trkpt>
      <trkpt lat="44.6136" lon="5.02295">
        <ele>573.56</ele>
        <time>2011-12-28T11:33:49Z</time>
      </trkpt>
      <trkpt lat="44.61368" lon="5.02285">
        <ele>575.97</ele>
        <time>2011-12-28T11:33:57Z</time>
      </trkpt>
      <trkpt lat="44.61376" lon="5.0228">
        <ele>577.89</ele>
        <time>2011-12-28T11:34:04Z</time>
      </trkpt>
      <trkpt lat="44.61388" lon="5.02274">
        <ele>580.77</ele>
        <time>2011-12-28T11:34:12Z</time>
      </trkpt>
      <trkpt lat="44.61389" lon="5.02274">
        <ele>580.77</ele>
        <time>2011-12-28T11:34:13Z</time>
      </trkpt>
      <trkpt lat="44.61391" lon="5.02275">
        <ele>580.77</ele>
        <time>2011-12-28T11:34:14Z</time>
      </trkpt>
      <trkpt lat="44.61392" lon="5.02275">
        <ele>581.25</ele>
        <time>2011-12-28T11:34:15Z</time>
      </trkpt>
      <trkpt lat="44.61394" lon="5.02276">
        <ele>581.25</ele>
        <time>2011-12-28T11:34:16Z</time>
      </trkpt>
      <trkpt lat="44.61395" lon="5.02276">
        <ele>581.73</ele>
        <time>2011-12-28T11:34:17Z</time>
      </trkpt>
      <trkpt lat="44.61396" lon="5.02277">
        <ele>581.73</ele>
        <time>2011-12-28T11:34:18Z</time>
      </trkpt>
      <trkpt lat="44.61397" lon="5.02278">
        <ele>582.22</ele>
        <time>2011-12-28T11:34:19Z</time>
      </trkpt>
      <trkpt lat="44.61398" lon="5.02279">
        <ele>582.22</ele>
        <time>2011-12-28T11:34:20Z</time>
      </trkpt>
      <trkpt lat="44.61405" lon="5.02284">
        <ele>582.22</ele>
        <time>2011-12-28T11:34:28Z</time>
      </trkpt>
      <trkpt lat="44.61406" lon="5.02284">
        <ele>582.7</ele>
        <time>2011-12-28T11:34:36Z</time>
      </trkpt>
      <trkpt lat="44.61406" lon="5.02285">
        <ele>582.7</ele>
        <time>2011-12-28T11:34:43Z</time>
      </trkpt>
      <trkpt lat="44.61406" lon="5.02285">
        <ele>582.7</ele>
        <time>2011-12-28T11:34:54Z</time>
      </trkpt>
      <trkpt lat="44.61408" lon="5.02286">
        <ele>582.7</ele>
        <time>2011-12-28T11:35:01Z</time>
      </trkpt>
      <trkpt lat="44.61418" lon="5.02289">
        <ele>584.14</ele>
        <time>2011-12-28T11:35:10Z</time>
      </trkpt>
      <trkpt lat="44.61427" lon="5.02292">
        <ele>586.54</ele>
        <time>2011-12-28T11:35:18Z</time>
      </trkpt>
      <trkpt lat="44.61439" lon="5.02297">
        <ele>588.46</ele>
        <time>2011-12-28T11:35:27Z</time>
      </trkpt>
      <trkpt lat="44.61449" lon="5.023">
        <ele>588.95</ele>
        <time>2011-12-28T11:35:35Z</time>
      </trkpt>
      <trkpt lat="44.61458" lon="5.02308">
        <ele>588.95</ele>
        <time>2011-12-28T11:35:43Z</time>
      </trkpt>
      <trkpt lat="44.61465" lon="5.02317">
        <ele>589.91</ele>
        <time>2011-12-28T11:35:51Z</time>
      </trkpt>
      <trkpt lat="44.61472" lon="5.02323">
        <ele>589.91</ele>
        <time>2011-12-28T11:35:59Z</time>
      </trkpt>
      <trkpt lat="44.6148" lon="5.02332">
        <ele>589.91</ele>
        <time>2011-12-28T11:36:08Z</time>
      </trkpt>
      <trkpt lat="44.61486" lon="5.02339">
        <ele>590.87</ele>
        <time>2011-12-28T11:36:15Z</time>
      </trkpt>
      <trkpt lat="44.61494" lon="5.02349">
        <ele>591.35</ele>
        <time>2011-12-28T11:36:24Z</time>
      </trkpt>
      <trkpt lat="44.61501" lon="5.02359">
        <ele>591.83</ele>
        <time>2011-12-28T11:36:32Z</time>
      </trkpt>
      <trkpt lat="44.61507" lon="5.0237">
        <ele>593.27</ele>
        <time>2011-12-28T11:36:40Z</time>
      </trkpt>
      <trkpt lat="44.61512" lon="5.02385">
        <ele>595.67</ele>
        <time>2011-12-28T11:36:51Z</time>
      </trkpt>
      <trkpt lat="44.61513" lon="5.02386">
        <ele>595.67</ele>
        <time>2011-12-28T11:36:52Z</time>
      </trkpt>
      <trkpt lat="44.61515" lon="5.02397">
        <ele>598.56</ele>
        <time>2011-12-28T11:36:59Z</time>
      </trkpt>
      <trkpt lat="44.61519" lon="5.02411">
        <ele>600.96</ele>
        <time>2011-12-28T11:37:08Z</time>
      </trkpt>
      <trkpt lat="44.6152" lon="5.02414">
        <ele>602.88</ele>
        <time>2011-12-28T11:37:10Z</time>
      </trkpt>
      <trkpt lat="44.61521" lon="5.02418">
        <ele>603.36</ele>
        <time>2011-12-28T11:37:16Z</time>
      </trkpt>
      <trkpt lat="44.61522" lon="5.0242">
        <ele>603.85</ele>
        <time>2011-12-28T11:37:27Z</time>
      </trkpt>
      <trkpt lat="44.61523" lon="5.02418">
        <ele>604.33</ele>
        <time>2011-12-28T11:37:33Z</time>
      </trkpt>
      <trkpt lat="44.61523" lon="5.02418">
        <ele>604.33</ele>
        <time>2011-12-28T11:37:34Z</time>
      </trkpt>
      <trkpt lat="44.61522" lon="5.02418">
        <ele>603.85</ele>
        <time>2011-12-28T11:37:39Z</time>
      </trkpt>
      <trkpt lat="44.61522" lon="5.02417">
        <ele>603.85</ele>
        <time>2011-12-28T11:37:52Z</time>
      </trkpt>
      <trkpt lat="44.61521" lon="5.02417">
        <ele>603.85</ele>
        <time>2011-12-28T11:38:06Z</time>
      </trkpt>
      <trkpt lat="44.61521" lon="5.02419">
        <ele>603.36</ele>
        <time>2011-12-28T11:38:17Z</time>
      </trkpt>
      <trkpt lat="44.61522" lon="5.02419">
        <ele>603.85</ele>
        <time>2011-12-28T11:38:19Z</time>
      </trkpt>
      <trkpt lat="44.61524" lon="5.02415">
        <ele>604.33</ele>
        <time>2011-12-28T11:38:22Z</time>
      </trkpt>
      <trkpt lat="44.61526" lon="5.02405">
        <ele>604.81</ele>
        <time>2011-12-28T11:38:29Z</time>
      </trkpt>
      <trkpt lat="44.6153" lon="5.02394">
        <ele>604.33</ele>
        <time>2011-12-28T11:38:35Z</time>
      </trkpt>
      <trkpt lat="44.61535" lon="5.02384">
        <ele>603.36</ele>
        <time>2011-12-28T11:38:42Z</time>
      </trkpt>
      <trkpt lat="44.61536" lon="5.02383">
        <ele>603.36</ele>
        <time>2011-12-28T11:38:43Z</time>
      </trkpt>
      <trkpt lat="44.61545" lon="5.02378">
        <ele>602.88</ele>
        <time>2011-12-28T11:38:51Z</time>
      </trkpt>
      <trkpt lat="44.61549" lon="5.02375">
        <ele>602.88</ele>
        <time>2011-12-28T11:38:54Z</time>
      </trkpt>
      <trkpt lat="44.61558" lon="5.02366">
        <ele>602.4</ele>
        <time>2011-12-28T11:39:02Z</time>
      </trkpt>
      <trkpt lat="44.61565" lon="5.02358">
        <ele>605.29</ele>
        <time>2011-12-28T11:39:09Z</time>
      </trkpt>
      <trkpt lat="44.6157" lon="5.02353">
        <ele>606.73</ele>
        <time>2011-12-28T11:39:15Z</time>
      </trkpt>
      <trkpt lat="44.61572" lon="5.02351">
        <ele>606.73</ele>
        <time>2011-12-28T11:39:16Z</time>
      </trkpt>
      <trkpt lat="44.61578" lon="5.02345">
        <ele>607.21</ele>
        <time>2011-12-28T11:39:23Z</time>
      </trkpt>
      <trkpt lat="44.6158" lon="5.02344">
        <ele>607.21</ele>
        <time>2011-12-28T11:39:25Z</time>
      </trkpt>
      <trkpt lat="44.61588" lon="5.02337">
        <ele>606.73</ele>
        <time>2011-12-28T11:39:32Z</time>
      </trkpt>
      <trkpt lat="44.61594" lon="5.02328">
        <ele>606.73</ele>
        <time>2011-12-28T11:39:39Z</time>
      </trkpt>
      <trkpt lat="44.61597" lon="5.02323">
        <ele>607.69</ele>
        <time>2011-12-28T11:39:42Z</time>
      </trkpt>
      <trkpt lat="44.61599" lon="5.02319">
        <ele>607.69</ele>
        <time>2011-12-28T11:39:45Z</time>
      </trkpt>
      <trkpt lat="44.616" lon="5.02318">
        <ele>607.69</ele>
        <time>2011-12-28T11:39:46Z</time>
      </trkpt>
      <trkpt lat="44.61601" lon="5.02316">
        <ele>608.17</ele>
        <time>2011-12-28T11:39:47Z</time>
      </trkpt>
      <trkpt lat="44.61602" lon="5.02314">
        <ele>608.17</ele>
        <time>2011-12-28T11:39:48Z</time>
      </trkpt>
      <trkpt lat="44.61603" lon="5.02312">
        <ele>608.65</ele>
        <time>2011-12-28T11:39:49Z</time>
      </trkpt>
      <trkpt lat="44.61609" lon="5.023">
        <ele>610.57</ele>
        <time>2011-12-28T11:39:57Z</time>
      </trkpt>
      <trkpt lat="44.61616" lon="5.02289">
        <ele>610.57</ele>
        <time>2011-12-28T11:40:06Z</time>
      </trkpt>
      <trkpt lat="44.61618" lon="5.02288">
        <ele>610.57</ele>
        <time>2011-12-28T11:40:07Z</time>
      </trkpt>
      <trkpt lat="44.61619" lon="5.02287">
        <ele>610.57</ele>
        <time>2011-12-28T11:40:08Z</time>
      </trkpt>
      <trkpt lat="44.61619" lon="5.02285">
        <ele>610.57</ele>
        <time>2011-12-28T11:40:09Z</time>
      </trkpt>
      <trkpt lat="44.6162" lon="5.02283">
        <ele>610.09</ele>
        <time>2011-12-28T11:40:10Z</time>
      </trkpt>
      <trkpt lat="44.61622" lon="5.0228">
        <ele>610.57</ele>
        <time>2011-12-28T11:40:11Z</time>
      </trkpt>
      <trkpt lat="44.61624" lon="5.02276">
        <ele>609.61</ele>
        <time>2011-12-28T11:40:14Z</time>
      </trkpt>
      <trkpt lat="44.61625" lon="5.02274">
        <ele>609.61</ele>
        <time>2011-12-28T11:40:15Z</time>
      </trkpt>
      <trkpt lat="44.61631" lon="5.02264">
        <ele>609.61</ele>
        <time>2011-12-28T11:40:22Z</time>
      </trkpt>
      <trkpt lat="44.61638" lon="5.02253">
        <ele>609.61</ele>
        <time>2011-12-28T11:40:30Z</time>
      </trkpt>
      <trkpt lat="44.61645" lon="5.02241">
        <ele>611.06</ele>
        <time>2011-12-28T11:40:37Z</time>
      </trkpt>
      <trkpt lat="44.61646" lon="5.02236">
        <ele>611.54</ele>
        <time>2011-12-28T11:40:39Z</time>
      </trkpt>
      <trkpt lat="44.61646" lon="5.02225">
        <ele>611.54</ele>
        <time>2011-12-28T11:40:46Z</time>
      </trkpt>
      <trkpt lat="44.61647" lon="5.02224">
        <ele>611.54</ele>
        <time>2011-12-28T11:40:55Z</time>
      </trkpt>
      <trkpt lat="44.61647" lon="5.02224">
        <ele>611.54</ele>
        <time>2011-12-28T11:41:04Z</time>
      </trkpt>
      <trkpt lat="44.61649" lon="5.02228">
        <ele>612.98</ele>
        <time>2011-12-28T11:41:08Z</time>
      </trkpt>
      <trkpt lat="44.61648" lon="5.02229">
        <ele>613.46</ele>
        <time>2011-12-28T11:41:09Z</time>
      </trkpt>
      <trkpt lat="44.61651" lon="5.02229">
        <ele>615.38</ele>
        <time>2011-12-28T11:41:15Z</time>
      </trkpt>
      <trkpt lat="44.61653" lon="5.02223">
        <ele>616.82</ele>
        <time>2011-12-28T11:41:20Z</time>
      </trkpt>
      <trkpt lat="44.61653" lon="5.02222">
        <ele>616.34</ele>
        <time>2011-12-28T11:41:21Z</time>
      </trkpt>
      <trkpt lat="44.61657" lon="5.02216">
        <ele>617.3</ele>
        <time>2011-12-28T11:41:28Z</time>
      </trkpt>
      <trkpt lat="44.61663" lon="5.02216">
        <ele>618.26</ele>
        <time>2011-12-28T11:41:34Z</time>
      </trkpt>
      <trkpt lat="44.61668" lon="5.02213">
        <ele>620.19</ele>
        <time>2011-12-28T11:41:40Z</time>
      </trkpt>
      <trkpt lat="44.61672" lon="5.02213">
        <ele>621.15</ele>
        <time>2011-12-28T11:41:43Z</time>
      </trkpt>
      <trkpt lat="44.6168" lon="5.02208">
        <ele>622.59</ele>
        <time>2011-12-28T11:41:50Z</time>
      </trkpt>
      <trkpt lat="44.61689" lon="5.02204">
        <ele>623.55</ele>
        <time>2011-12-28T11:41:58Z</time>
      </trkpt>
      <trkpt lat="44.61695" lon="5.02204">
        <ele>624.03</ele>
        <time>2011-12-28T11:42:03Z</time>
      </trkpt>
      <trkpt lat="44.61704" lon="5.02203">
        <ele>626.44</ele>
        <time>2011-12-28T11:42:10Z</time>
      </trkpt>
      <trkpt lat="44.61716" lon="5.02201">
        <ele>628.36</ele>
        <time>2011-12-28T11:42:20Z</time>
      </trkpt>
      <trkpt lat="44.61724" lon="5.02197">
        <ele>629.8</ele>
        <time>2011-12-28T11:42:27Z</time>
      </trkpt>
      <trkpt lat="44.6173" lon="5.02194">
        <ele>629.32</ele>
        <time>2011-12-28T11:42:32Z</time>
      </trkpt>
      <trkpt lat="44.61731" lon="5.02193">
        <ele>629.32</ele>
        <time>2011-12-28T11:42:33Z</time>
      </trkpt>
      <trkpt lat="44.61732" lon="5.02192">
        <ele>629.32</ele>
        <time>2011-12-28T11:42:34Z</time>
      </trkpt>
      <trkpt lat="44.6174" lon="5.02191">
        <ele>628.84</ele>
        <time>2011-12-28T11:42:41Z</time>
      </trkpt>
      <trkpt lat="44.61749" lon="5.02193">
        <ele>628.36</ele>
        <time>2011-12-28T11:42:49Z</time>
      </trkpt>
      <trkpt lat="44.61757" lon="5.02198">
        <ele>627.88</ele>
        <time>2011-12-28T11:42:57Z</time>
      </trkpt>
      <trkpt lat="44.61763" lon="5.02197">
        <ele>628.84</ele>
        <time>2011-12-28T11:43:02Z</time>
      </trkpt>
      <trkpt lat="44.6177" lon="5.02192">
        <ele>629.8</ele>
        <time>2011-12-28T11:43:08Z</time>
      </trkpt>
      <trkpt lat="44.61773" lon="5.02188">
        <ele>630.28</ele>
        <time>2011-12-28T11:43:11Z</time>
      </trkpt>
      <trkpt lat="44.61775" lon="5.02187">
        <ele>630.28</ele>
        <time>2011-12-28T11:43:12Z</time>
      </trkpt>
      <trkpt lat="44.61776" lon="5.02186">
        <ele>630.76</ele>
        <time>2011-12-28T11:43:13Z</time>
      </trkpt>
      <trkpt lat="44.61778" lon="5.02178">
        <ele>631.24</ele>
        <time>2011-12-28T11:43:19Z</time>
      </trkpt>
      <trkpt lat="44.61778" lon="5.02173">
        <ele>631.72</ele>
        <time>2011-12-28T11:43:22Z</time>
      </trkpt>
      <trkpt lat="44.61778" lon="5.02168">
        <ele>631.24</ele>
        <time>2011-12-28T11:43:25Z</time>
      </trkpt>
      <trkpt lat="44.61778" lon="5.02166">
        <ele>631.24</ele>
        <time>2011-12-28T11:43:26Z</time>
      </trkpt>
      <trkpt lat="44.61779" lon="5.02165">
        <ele>630.76</ele>
        <time>2011-12-28T11:43:27Z</time>
      </trkpt>
      <trkpt lat="44.61779" lon="5.02163">
        <ele>630.76</ele>
        <time>2011-12-28T11:43:28Z</time>
      </trkpt>
      <trkpt lat="44.61784" lon="5.02153">
        <ele>629.8</ele>
        <time>2011-12-28T11:43:36Z</time>
      </trkpt>
      <trkpt lat="44.61788" lon="5.02142">
        <ele>628.84</ele>
        <time>2011-12-28T11:43:44Z</time>
      </trkpt>
      <trkpt lat="44.61796" lon="5.02134">
        <ele>629.32</ele>
        <time>2011-12-28T11:43:53Z</time>
      </trkpt>
      <trkpt lat="44.61801" lon="5.02127">
        <ele>630.28</ele>
        <time>2011-12-28T11:44:01Z</time>
      </trkpt>
      <trkpt lat="44.61809" lon="5.02116">
        <ele>629.32</ele>
        <time>2011-12-28T11:44:10Z</time>
      </trkpt>
      <trkpt lat="44.6181" lon="5.02113">
        <ele>628.36</ele>
        <time>2011-12-28T11:44:18Z</time>
      </trkpt>
      <trkpt lat="44.6181" lon="5.02113">
        <ele>628.36</ele>
        <time>2011-12-28T11:44:27Z</time>
      </trkpt>
      <trkpt lat="44.61817" lon="5.02104">
        <ele>625.96</ele>
        <time>2011-12-28T11:44:35Z</time>
      </trkpt>
      <trkpt lat="44.61821" lon="5.02098">
        <ele>624.03</ele>
        <time>2011-12-28T11:44:44Z</time>
      </trkpt>
      <trkpt lat="44.61822" lon="5.02096">
        <ele>623.07</ele>
        <time>2011-12-28T11:44:53Z</time>
      </trkpt>
      <trkpt lat="44.61824" lon="5.02094">
        <ele>621.63</ele>
        <time>2011-12-28T11:45:03Z</time>
      </trkpt>
      <trkpt lat="44.61825" lon="5.02094">
        <ele>620.67</ele>
        <time>2011-12-28T11:45:13Z</time>
      </trkpt>
      <trkpt lat="44.61825" lon="5.02093">
        <ele>619.71</ele>
        <time>2011-12-28T11:45:23Z</time>
      </trkpt>
      <trkpt lat="44.6183" lon="5.02094">
        <ele>617.3</ele>
        <time>2011-12-28T11:45:29Z</time>
      </trkpt>
      <trkpt lat="44.61832" lon="5.02096">
        <ele>615.38</ele>
        <time>2011-12-28T11:45:37Z</time>
      </trkpt>
      <trkpt lat="44.6184" lon="5.02094">
        <ele>612.5</ele>
        <time>2011-12-28T11:45:45Z</time>
      </trkpt>
      <trkpt lat="44.61852" lon="5.02088">
        <ele>612.5</ele>
        <time>2011-12-28T11:45:52Z</time>
      </trkpt>
      <trkpt lat="44.6186" lon="5.02077">
        <ele>611.54</ele>
        <time>2011-12-28T11:46:01Z</time>
      </trkpt>
      <trkpt lat="44.61865" lon="5.02069">
        <ele>610.09</ele>
        <time>2011-12-28T11:46:08Z</time>
      </trkpt>
      <trkpt lat="44.61869" lon="5.02062">
        <ele>610.09</ele>
        <time>2011-12-28T11:46:15Z</time>
      </trkpt>
      <trkpt lat="44.61874" lon="5.02052">
        <ele>608.65</ele>
        <time>2011-12-28T11:46:25Z</time>
      </trkpt>
      <trkpt lat="44.61876" lon="5.02046">
        <ele>607.69</ele>
        <time>2011-12-28T11:46:33Z</time>
      </trkpt>
      <trkpt lat="44.61884" lon="5.02036">
        <ele>605.29</ele>
        <time>2011-12-28T11:46:42Z</time>
      </trkpt>
      <trkpt lat="44.61887" lon="5.0203">
        <ele>603.85</ele>
        <time>2011-12-28T11:46:50Z</time>
      </trkpt>
      <trkpt lat="44.61889" lon="5.02026">
        <ele>602.4</ele>
        <time>2011-12-28T11:46:58Z</time>
      </trkpt>
      <trkpt lat="44.61892" lon="5.02019">
        <ele>598.56</ele>
        <time>2011-12-28T11:47:06Z</time>
      </trkpt>
      <trkpt lat="44.61895" lon="5.02012">
        <ele>596.64</ele>
        <time>2011-12-28T11:47:13Z</time>
      </trkpt>
      <trkpt lat="44.61897" lon="5.02012">
        <ele>595.19</ele>
        <time>2011-12-28T11:47:21Z</time>
      </trkpt>
      <trkpt lat="44.61903" lon="5.02014">
        <ele>590.87</ele>
        <time>2011-12-28T11:47:30Z</time>
      </trkpt>
      <trkpt lat="44.61909" lon="5.02012">
        <ele>584.14</ele>
        <time>2011-12-28T11:47:38Z</time>
      </trkpt>
      <trkpt lat="44.61912" lon="5.02011">
        <ele>581.25</ele>
        <time>2011-12-28T11:47:45Z</time>
      </trkpt>
      <trkpt lat="44.61914" lon="5.02009">
        <ele>577.89</ele>
        <time>2011-12-28T11:47:52Z</time>
      </trkpt>
      <trkpt lat="44.61914" lon="5.02009">
        <ele>576.93</ele>
        <time>2011-12-28T11:48:00Z</time>
      </trkpt>
      <trkpt lat="44.61924" lon="5.02014">
        <ele>568.76</ele>
        <time>2011-12-28T11:48:09Z</time>
      </trkpt>
      <trkpt lat="44.6193" lon="5.02005">
        <ele>566.35</ele>
        <time>2011-12-28T11:48:17Z</time>
      </trkpt>
      <trkpt lat="44.61929" lon="5.01988">
        <ele>567.32</ele>
        <time>2011-12-28T11:48:26Z</time>
      </trkpt>
      <trkpt lat="44.61932" lon="5.0199">
        <ele>567.32</ele>
        <time>2011-12-28T11:48:32Z</time>
      </trkpt>
      <trkpt lat="44.61936" lon="5.01998">
        <ele>567.32</ele>
        <time>2011-12-28T11:48:41Z</time>
      </trkpt>
      <trkpt lat="44.61938" lon="5.02003">
        <ele>566.35</ele>
        <time>2011-12-28T11:48:48Z</time>
      </trkpt>
      <trkpt lat="44.61941" lon="5.02013">
        <ele>564.43</ele>
        <time>2011-12-28T11:48:56Z</time>
      </trkpt>
      <trkpt lat="44.61944" lon="5.02021">
        <ele>562.99</ele>
        <time>2011-12-28T11:49:04Z</time>
      </trkpt>
      <trkpt lat="44.61943" lon="5.02022">
        <ele>562.99</ele>
        <time>2011-12-28T11:49:05Z</time>
      </trkpt>
      <trkpt lat="44.61945" lon="5.02028">
        <ele>561.55</ele>
        <time>2011-12-28T11:49:12Z</time>
      </trkpt>
      <trkpt lat="44.61947" lon="5.02036">
        <ele>560.59</ele>
        <time>2011-12-28T11:49:19Z</time>
      </trkpt>
      <trkpt lat="44.61948" lon="5.02042">
        <ele>561.07</ele>
        <time>2011-12-28T11:49:26Z</time>
      </trkpt>
      <trkpt lat="44.6195" lon="5.02043">
        <ele>561.07</ele>
        <time>2011-12-28T11:49:34Z</time>
      </trkpt>
      <trkpt lat="44.6195" lon="5.02045">
        <ele>561.55</ele>
        <time>2011-12-28T11:49:42Z</time>
      </trkpt>
      <trkpt lat="44.61952" lon="5.02053">
        <ele>561.07</ele>
        <time>2011-12-28T11:49:49Z</time>
      </trkpt>
      <trkpt lat="44.61952" lon="5.02061">
        <ele>560.11</ele>
        <time>2011-12-28T11:49:56Z</time>
      </trkpt>
      <trkpt lat="44.61951" lon="5.02069">
        <ele>557.7</ele>
        <time>2011-12-28T11:50:03Z</time>
      </trkpt>
      <trkpt lat="44.61951" lon="5.02073">
        <ele>556.74</ele>
        <time>2011-12-28T11:50:08Z</time>
      </trkpt>
      <trkpt lat="44.61951" lon="5.02082">
        <ele>555.3</ele>
        <time>2011-12-28T11:50:15Z</time>
      </trkpt>
      <trkpt lat="44.61951" lon="5.02096">
        <ele>552.9</ele>
        <time>2011-12-28T11:50:25Z</time>
      </trkpt>
      <trkpt lat="44.61951" lon="5.02106">
        <ele>551.45</ele>
        <time>2011-12-28T11:50:30Z</time>
      </trkpt>
      <trkpt lat="44.61951" lon="5.02111">
        <ele>550.97</ele>
        <time>2011-12-28T11:50:35Z</time>
      </trkpt>
      <trkpt lat="44.61951" lon="5.02114">
        <ele>550.97</ele>
        <time>2011-12-28T11:50:37Z</time>
      </trkpt>
      <trkpt lat="44.61951" lon="5.02116">
        <ele>550.97</ele>
        <time>2011-12-28T11:50:38Z</time>
      </trkpt>
      <trkpt lat="44.61952" lon="5.02126">
        <ele>550.01</ele>
        <time>2011-12-28T11:50:46Z</time>
      </trkpt>
      <trkpt lat="44.61952" lon="5.02129">
        <ele>549.53</ele>
        <time>2011-12-28T11:50:53Z</time>
      </trkpt>
      <trkpt lat="44.61952" lon="5.02132">
        <ele>547.61</ele>
        <time>2011-12-28T11:51:02Z</time>
      </trkpt>
      <trkpt lat="44.61951" lon="5.02138">
        <ele>543.76</ele>
        <time>2011-12-28T11:51:09Z</time>
      </trkpt>
      <trkpt lat="44.61951" lon="5.02146">
        <ele>540.88</ele>
        <time>2011-12-28T11:51:16Z</time>
      </trkpt>
      <trkpt lat="44.61951" lon="5.0215">
        <ele>539.44</ele>
        <time>2011-12-28T11:51:22Z</time>
      </trkpt>
      <trkpt lat="44.61952" lon="5.0216">
        <ele>536.55</ele>
        <time>2011-12-28T11:51:30Z</time>
      </trkpt>
      <trkpt lat="44.6195" lon="5.0217">
        <ele>534.15</ele>
        <time>2011-12-28T11:51:38Z</time>
      </trkpt>
      <trkpt lat="44.6195" lon="5.02172">
        <ele>533.67</ele>
        <time>2011-12-28T11:51:47Z</time>
      </trkpt>
      <trkpt lat="44.61952" lon="5.02185">
        <ele>532.23</ele>
        <time>2011-12-28T11:51:53Z</time>
      </trkpt>
      <trkpt lat="44.61951" lon="5.02204">
        <ele>531.75</ele>
        <time>2011-12-28T11:52:01Z</time>
      </trkpt>
      <trkpt lat="44.61951" lon="5.02212">
        <ele>530.79</ele>
        <time>2011-12-28T11:52:07Z</time>
      </trkpt>
      <trkpt lat="44.61952" lon="5.02218">
        <ele>529.82</ele>
        <time>2011-12-28T11:52:16Z</time>
      </trkpt>
      <trkpt lat="44.6195" lon="5.02225">
        <ele>526.94</ele>
        <time>2011-12-28T11:52:23Z</time>
      </trkpt>
      <trkpt lat="44.61953" lon="5.02234">
        <ele>525.98</ele>
        <time>2011-12-28T11:52:31Z</time>
      </trkpt>
      <trkpt lat="44.61954" lon="5.02241">
        <ele>524.06</ele>
        <time>2011-12-28T11:52:38Z</time>
      </trkpt>
      <trkpt lat="44.61957" lon="5.02256">
        <ele>526.46</ele>
        <time>2011-12-28T11:52:46Z</time>
      </trkpt>
      <trkpt lat="44.61959" lon="5.0227">
        <ele>529.82</ele>
        <time>2011-12-28T11:52:53Z</time>
      </trkpt>
      <trkpt lat="44.61962" lon="5.0228">
        <ele>530.79</ele>
        <time>2011-12-28T11:53:01Z</time>
      </trkpt>
      <trkpt lat="44.61964" lon="5.02286">
        <ele>529.34</ele>
        <time>2011-12-28T11:53:09Z</time>
      </trkpt>
      <trkpt lat="44.61963" lon="5.0229">
        <ele>526.94</ele>
        <time>2011-12-28T11:53:17Z</time>
      </trkpt>
      <trkpt lat="44.61965" lon="5.02299">
        <ele>524.06</ele>
        <time>2011-12-28T11:53:24Z</time>
      </trkpt>
      <trkpt lat="44.61968" lon="5.02305">
        <ele>520.21</ele>
        <time>2011-12-28T11:53:31Z</time>
      </trkpt>
      <trkpt lat="44.61969" lon="5.02313">
        <ele>516.85</ele>
        <time>2011-12-28T11:53:37Z</time>
      </trkpt>
      <trkpt lat="44.6197" lon="5.02322">
        <ele>516.85</ele>
        <time>2011-12-28T11:53:43Z</time>
      </trkpt>
      <trkpt lat="44.61971" lon="5.02328">
        <ele>513.96</ele>
        <time>2011-12-28T11:53:50Z</time>
      </trkpt>
      <trkpt lat="44.61972" lon="5.02328">
        <ele>513.48</ele>
        <time>2011-12-28T11:53:59Z</time>
      </trkpt>
      <trkpt lat="44.61972" lon="5.0233">
        <ele>513</ele>
        <time>2011-12-28T11:54:07Z</time>
      </trkpt>
      <trkpt lat="44.61975" lon="5.02336">
        <ele>513.48</ele>
        <time>2011-12-28T11:54:15Z</time>
      </trkpt>
      <trkpt lat="44.61978" lon="5.02345">
        <ele>513.48</ele>
        <time>2011-12-28T11:54:23Z</time>
      </trkpt>
      <trkpt lat="44.61981" lon="5.02352">
        <ele>512.04</ele>
        <time>2011-12-28T11:54:31Z</time>
      </trkpt>
      <trkpt lat="44.61981" lon="5.02357">
        <ele>510.6</ele>
        <time>2011-12-28T11:54:38Z</time>
      </trkpt>
      <trkpt lat="44.61981" lon="5.02358">
        <ele>511.08</ele>
        <time>2011-12-28T11:54:45Z</time>
      </trkpt>
      <trkpt lat="44.61981" lon="5.02359">
        <ele>510.6</ele>
        <time>2011-12-28T11:54:53Z</time>
      </trkpt>
      <trkpt lat="44.61981" lon="5.02359">
        <ele>510.6</ele>
        <time>2011-12-28T11:55:13Z</time>
      </trkpt>
      <trkpt lat="44.61984" lon="5.02364">
        <ele>510.12</ele>
        <time>2011-12-28T11:55:22Z</time>
      </trkpt>
      <trkpt lat="44.61985" lon="5.02372">
        <ele>509.64</ele>
        <time>2011-12-28T11:55:30Z</time>
      </trkpt>
      <trkpt lat="44.61986" lon="5.02378">
        <ele>509.16</ele>
        <time>2011-12-28T11:55:38Z</time>
      </trkpt>
      <trkpt lat="44.61987" lon="5.02385">
        <ele>505.79</ele>
        <time>2011-12-28T11:55:48Z</time>
      </trkpt>
      <trkpt lat="44.61987" lon="5.02387">
        <ele>504.83</ele>
        <time>2011-12-28T11:55:55Z</time>
      </trkpt>
      <trkpt lat="44.61989" lon="5.02397">
        <ele>500.5</ele>
        <time>2011-12-28T11:56:05Z</time>
      </trkpt>
      <trkpt lat="44.61988" lon="5.02412">
        <ele>496.18</ele>
        <time>2011-12-28T11:56:13Z</time>
      </trkpt>
      <trkpt lat="44.61988" lon="5.02426">
        <ele>496.18</ele>
        <time>2011-12-28T11:56:19Z</time>
      </trkpt>
      <trkpt lat="44.61989" lon="5.02438">
        <ele>492.33</ele>
        <time>2011-12-28T11:56:28Z</time>
      </trkpt>
      <trkpt lat="44.61989" lon="5.02447">
        <ele>490.41</ele>
        <time>2011-12-28T11:56:37Z</time>
      </trkpt>
      <trkpt lat="44.61992" lon="5.02457">
        <ele>488.49</ele>
        <time>2011-12-28T11:56:46Z</time>
      </trkpt>
      <trkpt lat="44.61994" lon="5.02461">
        <ele>487.05</ele>
        <time>2011-12-28T11:56:54Z</time>
      </trkpt>
      <trkpt lat="44.61994" lon="5.02461">
        <ele>486.08</ele>
        <time>2011-12-28T11:57:08Z</time>
      </trkpt>
      <trkpt lat="44.61994" lon="5.02461">
        <ele>486.08</ele>
        <time>2011-12-28T11:57:26Z</time>
      </trkpt>
      <trkpt lat="44.61994" lon="5.02461">
        <ele>486.08</ele>
        <time>2011-12-28T11:57:37Z</time>
      </trkpt>
      <trkpt lat="44.62" lon="5.02467">
        <ele>486.56</ele>
        <time>2011-12-28T11:57:44Z</time>
      </trkpt>
      <trkpt lat="44.62001" lon="5.02474">
        <ele>486.08</ele>
        <time>2011-12-28T11:57:51Z</time>
      </trkpt>
      <trkpt lat="44.62" lon="5.02475">
        <ele>485.12</ele>
        <time>2011-12-28T11:58:00Z</time>
      </trkpt>
      <trkpt lat="44.62" lon="5.02476">
        <ele>484.64</ele>
        <time>2011-12-28T11:58:12Z</time>
      </trkpt>
      <trkpt lat="44.62001" lon="5.02482">
        <ele>480.8</ele>
        <time>2011-12-28T11:58:20Z</time>
      </trkpt>
      <trkpt lat="44.62002" lon="5.02483">
        <ele>479.35</ele>
        <time>2011-12-28T11:58:31Z</time>
      </trkpt>
      <trkpt lat="44.62004" lon="5.02491">
        <ele>475.99</ele>
        <time>2011-12-28T11:58:39Z</time>
      </trkpt>
      <trkpt lat="44.62004" lon="5.02492">
        <ele>475.51</ele>
        <time>2011-12-28T11:58:49Z</time>
      </trkpt>
      <trkpt lat="44.62005" lon="5.02496">
        <ele>473.11</ele>
        <time>2011-12-28T11:58:57Z</time>
      </trkpt>
      <trkpt lat="44.62008" lon="5.02502">
        <ele>470.22</ele>
        <time>2011-12-28T11:59:03Z</time>
      </trkpt>
      <trkpt lat="44.62008" lon="5.02507">
        <ele>468.78</ele>
        <time>2011-12-28T11:59:11Z</time>
      </trkpt>
      <trkpt lat="44.62009" lon="5.0252">
        <ele>463.49</ele>
        <time>2011-12-28T11:59:18Z</time>
      </trkpt>
      <trkpt lat="44.62009" lon="5.02526">
        <ele>461.09</ele>
        <time>2011-12-28T11:59:25Z</time>
      </trkpt>
      <trkpt lat="44.62012" lon="5.02543">
        <ele>462.05</ele>
        <time>2011-12-28T11:59:33Z</time>
      </trkpt>
      <trkpt lat="44.62013" lon="5.02549">
        <ele>461.09</ele>
        <time>2011-12-28T11:59:40Z</time>
      </trkpt>
      <trkpt lat="44.62015" lon="5.02559">
        <ele>460.61</ele>
        <time>2011-12-28T11:59:47Z</time>
      </trkpt>
      <trkpt lat="44.62017" lon="5.02565">
        <ele>461.57</ele>
        <time>2011-12-28T11:59:54Z</time>
      </trkpt>
      <trkpt lat="44.62019" lon="5.02569">
        <ele>458.21</ele>
        <time>2011-12-28T12:00:03Z</time>
      </trkpt>
      <trkpt lat="44.62021" lon="5.02576">
        <ele>455.32</ele>
        <time>2011-12-28T12:00:12Z</time>
      </trkpt>
      <trkpt lat="44.62025" lon="5.02585">
        <ele>451.96</ele>
        <time>2011-12-28T12:00:21Z</time>
      </trkpt>
      <trkpt lat="44.62027" lon="5.02591">
        <ele>449.07</ele>
        <time>2011-12-28T12:00:30Z</time>
      </trkpt>
      <trkpt lat="44.62026" lon="5.02594">
        <ele>447.15</ele>
        <time>2011-12-28T12:00:33Z</time>
      </trkpt>
      <trkpt lat="44.62026" lon="5.02603">
        <ele>444.75</ele>
        <time>2011-12-28T12:00:40Z</time>
      </trkpt>
      <trkpt lat="44.62029" lon="5.02606">
        <ele>445.23</ele>
        <time>2011-12-28T12:00:48Z</time>
      </trkpt>
      <trkpt lat="44.62028" lon="5.02612">
        <ele>446.19</ele>
        <time>2011-12-28T12:01:02Z</time>
      </trkpt>
      <trkpt lat="44.6203" lon="5.02613">
        <ele>446.67</ele>
        <time>2011-12-28T12:01:12Z</time>
      </trkpt>
      <trkpt lat="44.62033" lon="5.0262">
        <ele>449.55</ele>
        <time>2011-12-28T12:01:19Z</time>
      </trkpt>
      <trkpt lat="44.62037" lon="5.02627">
        <ele>451.96</ele>
        <time>2011-12-28T12:01:26Z</time>
      </trkpt>
      <trkpt lat="44.6204" lon="5.02635">
        <ele>452.44</ele>
        <time>2011-12-28T12:01:34Z</time>
      </trkpt>
      <trkpt lat="44.62043" lon="5.02644">
        <ele>451.96</ele>
        <time>2011-12-28T12:01:41Z</time>
      </trkpt>
      <trkpt lat="44.62047" lon="5.0265">
        <ele>451.48</ele>
        <time>2011-12-28T12:01:49Z</time>
      </trkpt>
      <trkpt lat="44.62052" lon="5.02656">
        <ele>450.03</ele>
        <time>2011-12-28T12:01:55Z</time>
      </trkpt>
      <trkpt lat="44.62053" lon="5.02662">
        <ele>448.11</ele>
        <time>2011-12-28T12:02:03Z</time>
      </trkpt>
      <trkpt lat="44.62056" lon="5.02668">
        <ele>445.71</ele>
        <time>2011-12-28T12:02:11Z</time>
      </trkpt>
      <trkpt lat="44.62059" lon="5.02674">
        <ele>443.79</ele>
        <time>2011-12-28T12:02:17Z</time>
      </trkpt>
      <trkpt lat="44.6206" lon="5.02682">
        <ele>440.42</ele>
        <time>2011-12-28T12:02:24Z</time>
      </trkpt>
      <trkpt lat="44.62061" lon="5.02688">
        <ele>436.58</ele>
        <time>2011-12-28T12:02:34Z</time>
      </trkpt>
      <trkpt lat="44.62061" lon="5.02692">
        <ele>432.25</ele>
        <time>2011-12-28T12:02:41Z</time>
      </trkpt>
      <trkpt lat="44.62061" lon="5.02705">
        <ele>428.4</ele>
        <time>2011-12-28T12:02:49Z</time>
      </trkpt>
      <trkpt lat="44.62062" lon="5.02718">
        <ele>425.04</ele>
        <time>2011-12-28T12:02:59Z</time>
      </trkpt>
      <trkpt lat="44.62066" lon="5.02728">
        <ele>421.19</ele>
        <time>2011-12-28T12:03:09Z</time>
      </trkpt>
      <trkpt lat="44.62069" lon="5.02731">
        <ele>418.79</ele>
        <time>2011-12-28T12:03:16Z</time>
      </trkpt>
      <trkpt lat="44.6207" lon="5.0274">
        <ele>417.83</ele>
        <time>2011-12-28T12:03:23Z</time>
      </trkpt>
      <trkpt lat="44.62072" lon="5.02745">
        <ele>420.23</ele>
        <time>2011-12-28T12:03:30Z</time>
      </trkpt>
      <trkpt lat="44.62072" lon="5.02746">
        <ele>420.23</ele>
        <time>2011-12-28T12:03:39Z</time>
      </trkpt>
      <trkpt lat="44.62072" lon="5.02747">
        <ele>420.23</ele>
        <time>2011-12-28T12:03:50Z</time>
      </trkpt>
      <trkpt lat="44.62078" lon="5.02753">
        <ele>419.27</ele>
        <time>2011-12-28T12:03:58Z</time>
      </trkpt>
      <trkpt lat="44.62078" lon="5.02755">
        <ele>419.27</ele>
        <time>2011-12-28T12:04:08Z</time>
      </trkpt>
      <trkpt lat="44.62078" lon="5.02756">
        <ele>418.79</ele>
        <time>2011-12-28T12:04:18Z</time>
      </trkpt>
      <trkpt lat="44.62079" lon="5.02757">
        <ele>418.31</ele>
        <time>2011-12-28T12:04:28Z</time>
      </trkpt>
      <trkpt lat="44.6208" lon="5.02765">
        <ele>416.39</ele>
        <time>2011-12-28T12:04:34Z</time>
      </trkpt>
      <trkpt lat="44.62081" lon="5.02767">
        <ele>415.91</ele>
        <time>2011-12-28T12:04:43Z</time>
      </trkpt>
      <trkpt lat="44.62081" lon="5.02775">
        <ele>412.06</ele>
        <time>2011-12-28T12:04:51Z</time>
      </trkpt>
      <trkpt lat="44.62082" lon="5.02782">
        <ele>410.62</ele>
        <time>2011-12-28T12:05:00Z</time>
      </trkpt>
      <trkpt lat="44.62082" lon="5.02788">
        <ele>406.77</ele>
        <time>2011-12-28T12:05:06Z</time>
      </trkpt>
      <trkpt lat="44.62082" lon="5.02801">
        <ele>407.74</ele>
        <time>2011-12-28T12:05:15Z</time>
      </trkpt>
      <trkpt lat="44.6208" lon="5.02804">
        <ele>408.22</ele>
        <time>2011-12-28T12:05:16Z</time>
      </trkpt>
      <trkpt lat="44.62086" lon="5.02807">
        <ele>410.62</ele>
        <time>2011-12-28T12:05:22Z</time>
      </trkpt>
      <trkpt lat="44.6209" lon="5.0281">
        <ele>410.62</ele>
        <time>2011-12-28T12:05:32Z</time>
      </trkpt>
      <trkpt lat="44.6209" lon="5.0281">
        <ele>410.62</ele>
        <time>2011-12-28T12:05:46Z</time>
      </trkpt>
      <trkpt lat="44.62095" lon="5.02815">
        <ele>412.54</ele>
        <time>2011-12-28T12:05:56Z</time>
      </trkpt>
      <trkpt lat="44.62101" lon="5.02826">
        <ele>413.5</ele>
        <time>2011-12-28T12:06:04Z</time>
      </trkpt>
      <trkpt lat="44.62106" lon="5.02832">
        <ele>413.02</ele>
        <time>2011-12-28T12:06:12Z</time>
      </trkpt>
      <trkpt lat="44.62111" lon="5.02839">
        <ele>410.14</ele>
        <time>2011-12-28T12:06:21Z</time>
      </trkpt>
      <trkpt lat="44.62112" lon="5.0284">
        <ele>409.18</ele>
        <time>2011-12-28T12:06:29Z</time>
      </trkpt>
      <trkpt lat="44.62118" lon="5.0285">
        <ele>405.81</ele>
        <time>2011-12-28T12:06:37Z</time>
      </trkpt>
      <trkpt lat="44.6212" lon="5.02857">
        <ele>403.41</ele>
        <time>2011-12-28T12:06:48Z</time>
      </trkpt>
      <trkpt lat="44.62123" lon="5.02863">
        <ele>402.45</ele>
        <time>2011-12-28T12:06:57Z</time>
      </trkpt>
      <trkpt lat="44.62123" lon="5.02883">
        <ele>400.05</ele>
        <time>2011-12-28T12:07:05Z</time>
      </trkpt>
      <trkpt lat="44.62128" lon="5.02894">
        <ele>398.6</ele>
        <time>2011-12-28T12:07:12Z</time>
      </trkpt>
      <trkpt lat="44.6213" lon="5.02905">
        <ele>397.64</ele>
        <time>2011-12-28T12:07:21Z</time>
      </trkpt>
      <trkpt lat="44.62133" lon="5.02923">
        <ele>396.2</ele>
        <time>2011-12-28T12:07:30Z</time>
      </trkpt>
      <trkpt lat="44.62135" lon="5.02935">
        <ele>396.68</ele>
        <time>2011-12-28T12:07:38Z</time>
      </trkpt>
      <trkpt lat="44.62135" lon="5.02939">
        <ele>397.16</ele>
        <time>2011-12-28T12:07:47Z</time>
      </trkpt>
      <trkpt lat="44.62134" lon="5.02949">
        <ele>397.64</ele>
        <time>2011-12-28T12:07:53Z</time>
      </trkpt>
      <trkpt lat="44.62134" lon="5.02964">
        <ele>398.6</ele>
        <time>2011-12-28T12:08:00Z</time>
      </trkpt>
      <trkpt lat="44.62134" lon="5.02975">
        <ele>399.08</ele>
        <time>2011-12-28T12:08:07Z</time>
      </trkpt>
      <trkpt lat="44.62131" lon="5.02987">
        <ele>401.01</ele>
        <time>2011-12-28T12:08:14Z</time>
      </trkpt>
      <trkpt lat="44.6213" lon="5.02998">
        <ele>401.49</ele>
        <time>2011-12-28T12:08:21Z</time>
      </trkpt>
      <trkpt lat="44.62129" lon="5.03008">
        <ele>399.57</ele>
        <time>2011-12-28T12:08:28Z</time>
      </trkpt>
      <trkpt lat="44.62124" lon="5.03018">
        <ele>396.2</ele>
        <time>2011-12-28T12:08:36Z</time>
      </trkpt>
      <trkpt lat="44.62122" lon="5.03027">
        <ele>395.24</ele>
        <time>2011-12-28T12:08:43Z</time>
      </trkpt>
      <trkpt lat="44.62119" lon="5.03035">
        <ele>394.76</ele>
        <time>2011-12-28T12:08:49Z</time>
      </trkpt>
      <trkpt lat="44.62115" lon="5.03041">
        <ele>393.8</ele>
        <time>2011-12-28T12:08:58Z</time>
      </trkpt>
      <trkpt lat="44.62115" lon="5.03044">
        <ele>392.36</ele>
        <time>2011-12-28T12:09:05Z</time>
      </trkpt>
      <trkpt lat="44.62112" lon="5.03049">
        <ele>391.39</ele>
        <time>2011-12-28T12:09:13Z</time>
      </trkpt>
      <trkpt lat="44.62108" lon="5.03059">
        <ele>390.43</ele>
        <time>2011-12-28T12:09:19Z</time>
      </trkpt>
      <trkpt lat="44.62102" lon="5.03074">
        <ele>391.39</ele>
        <time>2011-12-28T12:09:27Z</time>
      </trkpt>
      <trkpt lat="44.62099" lon="5.03079">
        <ele>392.36</ele>
        <time>2011-12-28T12:09:33Z</time>
      </trkpt>
      <trkpt lat="44.62099" lon="5.0308">
        <ele>392.36</ele>
        <time>2011-12-28T12:09:43Z</time>
      </trkpt>
      <trkpt lat="44.62099" lon="5.0308">
        <ele>392.36</ele>
        <time>2011-12-28T12:09:58Z</time>
      </trkpt>
      <trkpt lat="44.62098" lon="5.03081">
        <ele>392.36</ele>
        <time>2011-12-28T12:10:18Z</time>
      </trkpt>
      <trkpt lat="44.62094" lon="5.03084">
        <ele>393.32</ele>
        <time>2011-12-28T12:10:28Z</time>
      </trkpt>
      <trkpt lat="44.62089" lon="5.03093">
        <ele>395.24</ele>
        <time>2011-12-28T12:10:35Z</time>
      </trkpt>
      <trkpt lat="44.62084" lon="5.03103">
        <ele>398.6</ele>
        <time>2011-12-28T12:10:44Z</time>
      </trkpt>
      <trkpt lat="44.62079" lon="5.03108">
        <ele>400.05</ele>
        <time>2011-12-28T12:10:48Z</time>
      </trkpt>
      <trkpt lat="44.62075" lon="5.03112">
        <ele>400.53</ele>
        <time>2011-12-28T12:10:54Z</time>
      </trkpt>
      <trkpt lat="44.62072" lon="5.03113">
        <ele>400.53</ele>
        <time>2011-12-28T12:11:01Z</time>
      </trkpt>
      <trkpt lat="44.62072" lon="5.03115">
        <ele>400.05</ele>
        <time>2011-12-28T12:11:09Z</time>
      </trkpt>
      <trkpt lat="44.62072" lon="5.03115">
        <ele>400.05</ele>
        <time>2011-12-28T12:11:20Z</time>
      </trkpt>
      <trkpt lat="44.62072" lon="5.03115">
        <ele>400.05</ele>
        <time>2011-12-28T12:11:32Z</time>
      </trkpt>
      <trkpt lat="44.62072" lon="5.03115">
        <ele>400.05</ele>
        <time>2011-12-28T12:11:49Z</time>
      </trkpt>
      <trkpt lat="44.62072" lon="5.03115">
        <ele>400.05</ele>
        <time>2011-12-28T12:12:03Z</time>
      </trkpt>
      <trkpt lat="44.62074" lon="5.03119">
        <ele>399.08</ele>
        <time>2011-12-28T12:12:11Z</time>
      </trkpt>
      <trkpt lat="44.62075" lon="5.03122">
        <ele>397.64</ele>
        <time>2011-12-28T12:12:19Z</time>
      </trkpt>
      <trkpt lat="44.62078" lon="5.03128">
        <ele>391.39</ele>
        <time>2011-12-28T12:12:27Z</time>
      </trkpt>
      <trkpt lat="44.62084" lon="5.0314">
        <ele>388.51</ele>
        <time>2011-12-28T12:12:36Z</time>
      </trkpt>
      <trkpt lat="44.62089" lon="5.03141">
        <ele>388.51</ele>
        <time>2011-12-28T12:12:42Z</time>
      </trkpt>
      <trkpt lat="44.6209" lon="5.03146">
        <ele>388.03</ele>
        <time>2011-12-28T12:12:47Z</time>
      </trkpt>
      <trkpt lat="44.6209" lon="5.03153">
        <ele>387.55</ele>
        <time>2011-12-28T12:12:54Z</time>
      </trkpt>
      <trkpt lat="44.62091" lon="5.03159">
        <ele>386.11</ele>
        <time>2011-12-28T12:13:01Z</time>
      </trkpt>
      <trkpt lat="44.62091" lon="5.03165">
        <ele>383.7</ele>
        <time>2011-12-28T12:13:09Z</time>
      </trkpt>
      <trkpt lat="44.62091" lon="5.03169">
        <ele>380.82</ele>
        <time>2011-12-28T12:13:16Z</time>
      </trkpt>
      <trkpt lat="44.62092" lon="5.03176">
        <ele>377.94</ele>
        <time>2011-12-28T12:13:24Z</time>
      </trkpt>
      <trkpt lat="44.62092" lon="5.03176">
        <ele>377.94</ele>
        <time>2011-12-28T12:13:33Z</time>
      </trkpt>
      <trkpt lat="44.62095" lon="5.03182">
        <ele>373.61</ele>
        <time>2011-12-28T12:13:41Z</time>
      </trkpt>
      <trkpt lat="44.62096" lon="5.03191">
        <ele>370.73</ele>
        <time>2011-12-28T12:13:46Z</time>
      </trkpt>
      <trkpt lat="44.62095" lon="5.032">
        <ele>368.32</ele>
        <time>2011-12-28T12:13:54Z</time>
      </trkpt>
      <trkpt lat="44.62095" lon="5.03204">
        <ele>369.28</ele>
        <time>2011-12-28T12:14:02Z</time>
      </trkpt>
      <trkpt lat="44.62095" lon="5.03204">
        <ele>369.28</ele>
        <time>2011-12-28T12:14:10Z</time>
      </trkpt>
      <trkpt lat="44.62095" lon="5.03205">
        <ele>369.76</ele>
        <time>2011-12-28T12:14:20Z</time>
      </trkpt>
      <trkpt lat="44.62096" lon="5.03205">
        <ele>370.24</ele>
        <time>2011-12-28T12:14:30Z</time>
      </trkpt>
      <trkpt lat="44.62094" lon="5.0321">
        <ele>372.65</ele>
        <time>2011-12-28T12:14:37Z</time>
      </trkpt>
      <trkpt lat="44.62092" lon="5.03194">
        <ele>372.109375</ele>
      </trkpt>
      <trkpt lat="44.62111" lon="5.03194">
        <ele>369.390625</ele>
      </trkpt>
      <trkpt lat="44.62142" lon="5.03179">
        <ele>365.5585938</ele>
      </trkpt>
      <trkpt lat="44.6218" lon="5.03171">
        <ele>359.6679688</ele>
      </trkpt>
      <trkpt lat="44.62218" lon="5.03171">
        <ele>354.09375</ele>
      </trkpt>
      <trkpt lat="44.62237" lon="5.03202">
        <ele>347.078125</ele>
      </trkpt>
      <trkpt lat="44.62268" lon="5.03217">
        <ele>343.8710938</ele>
      </trkpt>
      <trkpt lat="44.623" lon="5.03233">
        <ele>341.3554688</ele>
      </trkpt>
      <trkpt lat="44.62331" lon="5.03248">
        <ele>338.4453125</ele>
      </trkpt>
      <trkpt lat="44.62369" lon="5.03264">
        <ele>333.3164063</ele>
      </trkpt>
      <trkpt lat="44.624" lon="5.03279">
        <ele>328.2304688</ele>
      </trkpt>
      <trkpt lat="44.62416" lon="5.03255">
        <ele>320.74</ele>
        <time>2012-01-11T13:00:04Z</time>
      </trkpt>
      <trkpt lat="44.62411" lon="5.03291">
        <ele>325.8398438</ele>
      </trkpt>
      <trkpt lat="44.6242" lon="5.03318">
        <ele>323.5585938</ele>
      </trkpt>
      <trkpt lat="44.62433" lon="5.03346">
        <ele>317.0507813</ele>
      </trkpt>
      <trkpt lat="44.62438" lon="5.03384">
        <ele>313.4609375</ele>
      </trkpt>
      <trkpt lat="44.62433" lon="5.03417">
        <ele>314.15625</ele>
      </trkpt>
      <trkpt lat="44.62415" lon="5.03433">
        <ele>317.0625</ele>
      </trkpt>
      <trkpt lat="44.62393" lon="5.03444">
        <ele>317.8515625</ele>
      </trkpt>
      <trkpt lat="44.62366" lon="5.03444">
        <ele>318.8398438</ele>
      </trkpt>
      <trkpt lat="44.62339" lon="5.03444">
        <ele>318.8867188</ele>
      </trkpt>
      <trkpt lat="44.62312" lon="5.03455">
        <ele>317.1953125</ele>
      </trkpt>
      <trkpt lat="44.62303" lon="5.03488">
        <ele>314.0625</ele>
      </trkpt>
      <trkpt lat="44.62298" lon="5.03521">
        <ele>310.5898438</ele>
      </trkpt>
      <trkpt lat="44.62307" lon="5.03554">
        <ele>308.0234375</ele>
      </trkpt>
      <trkpt lat="44.62316" lon="5.03581">
        <ele>306.0507813</ele>
      </trkpt>
      <trkpt lat="44.62316" lon="5.0362">
        <ele>304.015625</ele>
      </trkpt>
      <trkpt lat="44.62316" lon="5.03658">
        <ele>301.25</ele>
      </trkpt>
      <trkpt lat="44.62316" lon="5.03697">
        <ele>298.453125</ele>
      </trkpt>
      <trkpt lat="44.62321" lon="5.03735">
        <ele>294.8398438</ele>
      </trkpt>
      <trkpt lat="44.6233" lon="5.03762">
        <ele>292.7539063</ele>
      </trkpt>
      <trkpt lat="44.62352" lon="5.03773">
        <ele>292.0507813</ele>
      </trkpt>
      <trkpt lat="44.6237" lon="5.0379">
        <ele>291.5117188</ele>
      </trkpt>
      <trkpt lat="44.62379" lon="5.03801">
        <ele>291.5234375</ele>
      </trkpt>
    </trkseg>
  </trk>
</gpx>